<?xml version="1.0" encoding="UTF-8" standalone="no" ?>
<gpx xmlns="http://www.topografix.com/GPX/1/1" xmlns:xsi="http://www.w3.org/2001/XMLSchema-instance" xsi:schemaLocation="http://www.topografix.com/GPX/1/1 http://www.topografix.com/GPX/1/1/gpx.xsd" version="1.1" creator="VisuGPX - https://www.visugpx.com">
  <metadata>
    <name>Nenon Rochefort Audelange</name>
    <desc><![CDATA[Randonnée effectuée le 25 septembre 2017]]></desc>
  </metadata>
  <trk>
    <name><![CDATA[25 sept. 2017 à 09:01:49]]></name>
    <cmt><![CDATA[25 sept. 2017 à 09:01:49]]></cmt>
    <trkseg>
      <trkpt lat="47.12501" lon="5.58545">
        <ele>209</ele>
        <time>2017-09-25T07:01:50Z</time>
      </trkpt>
      <trkpt lat="47.12496" lon="5.58546">
        <ele>209</ele>
        <time>2017-09-25T07:01:55Z</time>
      </trkpt>
      <trkpt lat="47.12491" lon="5.58548">
        <ele>209</ele>
        <time>2017-09-25T07:02:00Z</time>
      </trkpt>
      <trkpt lat="47.12489" lon="5.58555">
        <ele>210</ele>
        <time>2017-09-25T07:02:04Z</time>
      </trkpt>
      <trkpt lat="47.12489" lon="5.58564">
        <ele>212</ele>
        <time>2017-09-25T07:02:08Z</time>
      </trkpt>
      <trkpt lat="47.12479" lon="5.58581">
        <ele>215</ele>
        <time>2017-09-25T07:02:24Z</time>
      </trkpt>
      <trkpt lat="47.12476" lon="5.58587">
        <ele>214</ele>
        <time>2017-09-25T07:02:29Z</time>
      </trkpt>
      <trkpt lat="47.12471" lon="5.58589">
        <ele>213</ele>
        <time>2017-09-25T07:02:35Z</time>
      </trkpt>
      <trkpt lat="47.12451" lon="5.58621">
        <ele>208</ele>
        <time>2017-09-25T07:03:01Z</time>
      </trkpt>
      <trkpt lat="47.12448" lon="5.58626">
        <ele>208</ele>
        <time>2017-09-25T07:03:06Z</time>
      </trkpt>
      <trkpt lat="47.12441" lon="5.58638">
        <ele>209</ele>
        <time>2017-09-25T07:03:14Z</time>
      </trkpt>
      <trkpt lat="47.12438" lon="5.58644">
        <ele>210</ele>
        <time>2017-09-25T07:03:17Z</time>
      </trkpt>
      <trkpt lat="47.12431" lon="5.58653">
        <ele>210</ele>
        <time>2017-09-25T07:03:25Z</time>
      </trkpt>
      <trkpt lat="47.12427" lon="5.58655">
        <ele>210</ele>
        <time>2017-09-25T07:03:29Z</time>
      </trkpt>
      <trkpt lat="47.12421" lon="5.58656">
        <ele>210</ele>
        <time>2017-09-25T07:03:35Z</time>
      </trkpt>
      <trkpt lat="47.12411" lon="5.58657">
        <ele>211</ele>
        <time>2017-09-25T07:03:43Z</time>
      </trkpt>
      <trkpt lat="47.12402" lon="5.58656">
        <ele>211</ele>
        <time>2017-09-25T07:03:51Z</time>
      </trkpt>
      <trkpt lat="47.12373" lon="5.58651">
        <ele>212</ele>
        <time>2017-09-25T07:04:14Z</time>
      </trkpt>
      <trkpt lat="47.12368" lon="5.58653">
        <ele>213</ele>
        <time>2017-09-25T07:04:18Z</time>
      </trkpt>
      <trkpt lat="47.12363" lon="5.58651">
        <ele>213</ele>
        <time>2017-09-25T07:04:22Z</time>
      </trkpt>
      <trkpt lat="47.12359" lon="5.58649">
        <ele>213</ele>
        <time>2017-09-25T07:04:26Z</time>
      </trkpt>
      <trkpt lat="47.12354" lon="5.5865">
        <ele>214</ele>
        <time>2017-09-25T07:04:33Z</time>
      </trkpt>
      <trkpt lat="47.1235" lon="5.58647">
        <ele>216</ele>
        <time>2017-09-25T07:04:41Z</time>
      </trkpt>
      <trkpt lat="47.12313" lon="5.58649">
        <ele>222</ele>
        <time>2017-09-25T07:05:09Z</time>
      </trkpt>
      <trkpt lat="47.12284" lon="5.58646">
        <ele>221</ele>
        <time>2017-09-25T07:05:31Z</time>
      </trkpt>
      <trkpt lat="47.12276" lon="5.58653">
        <ele>221</ele>
        <time>2017-09-25T07:05:39Z</time>
      </trkpt>
      <trkpt lat="47.1226" lon="5.58669">
        <ele>221</ele>
        <time>2017-09-25T07:05:56Z</time>
      </trkpt>
      <trkpt lat="47.1225" lon="5.58671">
        <ele>221</ele>
        <time>2017-09-25T07:06:03Z</time>
      </trkpt>
      <trkpt lat="47.12241" lon="5.58677">
        <ele>221</ele>
        <time>2017-09-25T07:06:10Z</time>
      </trkpt>
      <trkpt lat="47.12232" lon="5.58672">
        <ele>221</ele>
        <time>2017-09-25T07:06:18Z</time>
      </trkpt>
      <trkpt lat="47.1223" lon="5.58658">
        <ele>221</ele>
        <time>2017-09-25T07:06:24Z</time>
      </trkpt>
      <trkpt lat="47.12217" lon="5.58636">
        <ele>223</ele>
        <time>2017-09-25T07:06:43Z</time>
      </trkpt>
      <trkpt lat="47.12215" lon="5.58623">
        <ele>223</ele>
        <time>2017-09-25T07:06:50Z</time>
      </trkpt>
      <trkpt lat="47.12209" lon="5.5861">
        <ele>223</ele>
        <time>2017-09-25T07:06:57Z</time>
      </trkpt>
      <trkpt lat="47.12206" lon="5.58604">
        <ele>224</ele>
        <time>2017-09-25T07:07:02Z</time>
      </trkpt>
      <trkpt lat="47.122" lon="5.58601">
        <ele>224</ele>
        <time>2017-09-25T07:07:07Z</time>
      </trkpt>
      <trkpt lat="47.12191" lon="5.58594">
        <ele>225</ele>
        <time>2017-09-25T07:07:15Z</time>
      </trkpt>
      <trkpt lat="47.12188" lon="5.58588">
        <ele>226</ele>
        <time>2017-09-25T07:07:21Z</time>
      </trkpt>
      <trkpt lat="47.12186" lon="5.58581">
        <ele>227</ele>
        <time>2017-09-25T07:07:26Z</time>
      </trkpt>
      <trkpt lat="47.12186" lon="5.58574">
        <ele>228</ele>
        <time>2017-09-25T07:07:30Z</time>
      </trkpt>
      <trkpt lat="47.12187" lon="5.58566">
        <ele>228</ele>
        <time>2017-09-25T07:07:35Z</time>
      </trkpt>
      <trkpt lat="47.12183" lon="5.58559">
        <ele>229</ele>
        <time>2017-09-25T07:07:40Z</time>
      </trkpt>
      <trkpt lat="47.12181" lon="5.58552">
        <ele>229</ele>
        <time>2017-09-25T07:07:44Z</time>
      </trkpt>
      <trkpt lat="47.12177" lon="5.58546">
        <ele>229</ele>
        <time>2017-09-25T07:07:48Z</time>
      </trkpt>
      <trkpt lat="47.12177" lon="5.58538">
        <ele>229</ele>
        <time>2017-09-25T07:07:52Z</time>
      </trkpt>
      <trkpt lat="47.12172" lon="5.58524">
        <ele>230</ele>
        <time>2017-09-25T07:08:00Z</time>
      </trkpt>
      <trkpt lat="47.12164" lon="5.58516">
        <ele>230</ele>
        <time>2017-09-25T07:08:08Z</time>
      </trkpt>
      <trkpt lat="47.12155" lon="5.58508">
        <ele>229</ele>
        <time>2017-09-25T07:08:16Z</time>
      </trkpt>
      <trkpt lat="47.12154" lon="5.58495">
        <ele>229</ele>
        <time>2017-09-25T07:08:24Z</time>
      </trkpt>
      <trkpt lat="47.12137" lon="5.58484">
        <ele>228</ele>
        <time>2017-09-25T07:08:38Z</time>
      </trkpt>
      <trkpt lat="47.12129" lon="5.58476">
        <ele>230</ele>
        <time>2017-09-25T07:08:46Z</time>
      </trkpt>
      <trkpt lat="47.12128" lon="5.58463">
        <ele>230</ele>
        <time>2017-09-25T07:08:53Z</time>
      </trkpt>
      <trkpt lat="47.12123" lon="5.58451">
        <ele>231</ele>
        <time>2017-09-25T07:09:01Z</time>
      </trkpt>
      <trkpt lat="47.12115" lon="5.58443">
        <ele>232</ele>
        <time>2017-09-25T07:09:10Z</time>
      </trkpt>
      <trkpt lat="47.12101" lon="5.58413">
        <ele>232</ele>
        <time>2017-09-25T07:09:26Z</time>
      </trkpt>
      <trkpt lat="47.12095" lon="5.58401">
        <ele>233</ele>
        <time>2017-09-25T07:09:35Z</time>
      </trkpt>
      <trkpt lat="47.12086" lon="5.58395">
        <ele>234</ele>
        <time>2017-09-25T07:09:41Z</time>
      </trkpt>
      <trkpt lat="47.12061" lon="5.58352">
        <ele>244</ele>
        <time>2017-09-25T07:10:15Z</time>
      </trkpt>
      <trkpt lat="47.12056" lon="5.58346">
        <ele>245</ele>
        <time>2017-09-25T07:10:19Z</time>
      </trkpt>
      <trkpt lat="47.12046" lon="5.58328">
        <ele>246</ele>
        <time>2017-09-25T07:10:31Z</time>
      </trkpt>
      <trkpt lat="47.12042" lon="5.58324">
        <ele>247</ele>
        <time>2017-09-25T07:10:40Z</time>
      </trkpt>
      <trkpt lat="47.12024" lon="5.58296">
        <ele>249</ele>
        <time>2017-09-25T07:11:00Z</time>
      </trkpt>
      <trkpt lat="47.1202" lon="5.58291">
        <ele>250</ele>
        <time>2017-09-25T07:11:04Z</time>
      </trkpt>
      <trkpt lat="47.12015" lon="5.58288">
        <ele>250</ele>
        <time>2017-09-25T07:11:08Z</time>
      </trkpt>
      <trkpt lat="47.12012" lon="5.58283">
        <ele>250</ele>
        <time>2017-09-25T07:11:12Z</time>
      </trkpt>
      <trkpt lat="47.12008" lon="5.58277">
        <ele>250</ele>
        <time>2017-09-25T07:11:16Z</time>
      </trkpt>
      <trkpt lat="47.12006" lon="5.58271">
        <ele>251</ele>
        <time>2017-09-25T07:11:21Z</time>
      </trkpt>
      <trkpt lat="47.12009" lon="5.58264">
        <ele>251</ele>
        <time>2017-09-25T07:12:01Z</time>
      </trkpt>
      <trkpt lat="47.12023" lon="5.58242">
        <ele>247</ele>
        <time>2017-09-25T07:12:17Z</time>
      </trkpt>
      <trkpt lat="47.12026" lon="5.58236">
        <ele>247</ele>
        <time>2017-09-25T07:12:22Z</time>
      </trkpt>
      <trkpt lat="47.12032" lon="5.58225">
        <ele>245</ele>
        <time>2017-09-25T07:12:30Z</time>
      </trkpt>
      <trkpt lat="47.12036" lon="5.58219">
        <ele>245</ele>
        <time>2017-09-25T07:12:35Z</time>
      </trkpt>
      <trkpt lat="47.12057" lon="5.58184">
        <ele>239</ele>
        <time>2017-09-25T07:13:08Z</time>
      </trkpt>
      <trkpt lat="47.12061" lon="5.58178">
        <ele>238</ele>
        <time>2017-09-25T07:13:13Z</time>
      </trkpt>
      <trkpt lat="47.12065" lon="5.58173">
        <ele>238</ele>
        <time>2017-09-25T07:13:17Z</time>
      </trkpt>
      <trkpt lat="47.12078" lon="5.58163">
        <ele>238</ele>
        <time>2017-09-25T07:13:30Z</time>
      </trkpt>
      <trkpt lat="47.1209" lon="5.58145">
        <ele>237</ele>
        <time>2017-09-25T07:13:47Z</time>
      </trkpt>
      <trkpt lat="47.12121" lon="5.58106">
        <ele>238</ele>
        <time>2017-09-25T07:14:16Z</time>
      </trkpt>
      <trkpt lat="47.12129" lon="5.58096">
        <ele>237</ele>
        <time>2017-09-25T07:14:24Z</time>
      </trkpt>
      <trkpt lat="47.12137" lon="5.58088">
        <ele>238</ele>
        <time>2017-09-25T07:14:32Z</time>
      </trkpt>
      <trkpt lat="47.12154" lon="5.58066">
        <ele>237</ele>
        <time>2017-09-25T07:14:49Z</time>
      </trkpt>
      <trkpt lat="47.12157" lon="5.5806">
        <ele>237</ele>
        <time>2017-09-25T07:14:53Z</time>
      </trkpt>
      <trkpt lat="47.12161" lon="5.58054">
        <ele>237</ele>
        <time>2017-09-25T07:14:57Z</time>
      </trkpt>
      <trkpt lat="47.12164" lon="5.58049">
        <ele>236</ele>
        <time>2017-09-25T07:15:01Z</time>
      </trkpt>
      <trkpt lat="47.12171" lon="5.58038">
        <ele>235</ele>
        <time>2017-09-25T07:15:09Z</time>
      </trkpt>
      <trkpt lat="47.1218" lon="5.5803">
        <ele>234</ele>
        <time>2017-09-25T07:15:19Z</time>
      </trkpt>
      <trkpt lat="47.12184" lon="5.58024">
        <ele>234</ele>
        <time>2017-09-25T07:15:24Z</time>
      </trkpt>
      <trkpt lat="47.12188" lon="5.58016">
        <ele>233</ele>
        <time>2017-09-25T07:16:01Z</time>
      </trkpt>
      <trkpt lat="47.12193" lon="5.58011">
        <ele>233</ele>
        <time>2017-09-25T07:16:04Z</time>
      </trkpt>
      <trkpt lat="47.1222" lon="5.57975">
        <ele>231</ele>
        <time>2017-09-25T07:16:26Z</time>
      </trkpt>
      <trkpt lat="47.12222" lon="5.5797">
        <ele>231</ele>
        <time>2017-09-25T07:16:29Z</time>
      </trkpt>
      <trkpt lat="47.12252" lon="5.57938">
        <ele>230</ele>
        <time>2017-09-25T07:16:53Z</time>
      </trkpt>
      <trkpt lat="47.12277" lon="5.57899">
        <ele>230</ele>
        <time>2017-09-25T07:17:17Z</time>
      </trkpt>
      <trkpt lat="47.12305" lon="5.57865">
        <ele>228</ele>
        <time>2017-09-25T07:17:43Z</time>
      </trkpt>
      <trkpt lat="47.12309" lon="5.57859">
        <ele>228</ele>
        <time>2017-09-25T07:17:47Z</time>
      </trkpt>
      <trkpt lat="47.12333" lon="5.5783">
        <ele>224</ele>
        <time>2017-09-25T07:18:12Z</time>
      </trkpt>
      <trkpt lat="47.12339" lon="5.57818">
        <ele>223</ele>
        <time>2017-09-25T07:18:19Z</time>
      </trkpt>
      <trkpt lat="47.12347" lon="5.57809">
        <ele>223</ele>
        <time>2017-09-25T07:18:25Z</time>
      </trkpt>
      <trkpt lat="47.12358" lon="5.57791">
        <ele>222</ele>
        <time>2017-09-25T07:18:34Z</time>
      </trkpt>
      <trkpt lat="47.12392" lon="5.57754">
        <ele>219</ele>
        <time>2017-09-25T07:19:02Z</time>
      </trkpt>
      <trkpt lat="47.12402" lon="5.5774">
        <ele>219</ele>
        <time>2017-09-25T07:19:12Z</time>
      </trkpt>
      <trkpt lat="47.12431" lon="5.57702">
        <ele>217</ele>
        <time>2017-09-25T07:19:37Z</time>
      </trkpt>
      <trkpt lat="47.12462" lon="5.57662">
        <ele>219</ele>
        <time>2017-09-25T07:20:07Z</time>
      </trkpt>
      <trkpt lat="47.12466" lon="5.57657">
        <ele>219</ele>
        <time>2017-09-25T07:20:12Z</time>
      </trkpt>
      <trkpt lat="47.12469" lon="5.57652">
        <ele>220</ele>
        <time>2017-09-25T07:20:18Z</time>
      </trkpt>
      <trkpt lat="47.12472" lon="5.57662">
        <ele>219</ele>
        <time>2017-09-25T07:20:46Z</time>
      </trkpt>
      <trkpt lat="47.12477" lon="5.57699">
        <ele>222</ele>
        <time>2017-09-25T07:21:05Z</time>
      </trkpt>
      <trkpt lat="47.12484" lon="5.57728">
        <ele>222</ele>
        <time>2017-09-25T07:21:21Z</time>
      </trkpt>
      <trkpt lat="47.12487" lon="5.57742">
        <ele>222</ele>
        <time>2017-09-25T07:21:29Z</time>
      </trkpt>
      <trkpt lat="47.12495" lon="5.57763">
        <ele>223</ele>
        <time>2017-09-25T07:21:41Z</time>
      </trkpt>
      <trkpt lat="47.12502" lon="5.57772">
        <ele>223</ele>
        <time>2017-09-25T07:21:48Z</time>
      </trkpt>
      <trkpt lat="47.12505" lon="5.57772">
        <ele>223</ele>
        <time>2017-09-25T07:22:11Z</time>
      </trkpt>
      <trkpt lat="47.12524" lon="5.57723">
        <ele>223</ele>
        <time>2017-09-25T07:22:42Z</time>
      </trkpt>
      <trkpt lat="47.12529" lon="5.57712">
        <ele>223</ele>
        <time>2017-09-25T07:22:49Z</time>
      </trkpt>
      <trkpt lat="47.12549" lon="5.57665">
        <ele>219</ele>
        <time>2017-09-25T07:23:18Z</time>
      </trkpt>
      <trkpt lat="47.12556" lon="5.57653">
        <ele>219</ele>
        <time>2017-09-25T07:23:27Z</time>
      </trkpt>
      <trkpt lat="47.12563" lon="5.57641">
        <ele>219</ele>
        <time>2017-09-25T07:23:37Z</time>
      </trkpt>
      <trkpt lat="47.12566" lon="5.57635">
        <ele>219</ele>
        <time>2017-09-25T07:23:41Z</time>
      </trkpt>
      <trkpt lat="47.12575" lon="5.57616">
        <ele>219</ele>
        <time>2017-09-25T07:23:54Z</time>
      </trkpt>
      <trkpt lat="47.1259" lon="5.57585">
        <ele>218</ele>
        <time>2017-09-25T07:24:16Z</time>
      </trkpt>
      <trkpt lat="47.12595" lon="5.57579">
        <ele>218</ele>
        <time>2017-09-25T07:24:21Z</time>
      </trkpt>
      <trkpt lat="47.12599" lon="5.57574">
        <ele>218</ele>
        <time>2017-09-25T07:24:25Z</time>
      </trkpt>
      <trkpt lat="47.12603" lon="5.5757">
        <ele>218</ele>
        <time>2017-09-25T07:24:29Z</time>
      </trkpt>
      <trkpt lat="47.12607" lon="5.57566">
        <ele>218</ele>
        <time>2017-09-25T07:24:34Z</time>
      </trkpt>
      <trkpt lat="47.12611" lon="5.5756">
        <ele>218</ele>
        <time>2017-09-25T07:24:40Z</time>
      </trkpt>
      <trkpt lat="47.12616" lon="5.57557">
        <ele>218</ele>
        <time>2017-09-25T07:24:43Z</time>
      </trkpt>
      <trkpt lat="47.12631" lon="5.57547">
        <ele>217</ele>
        <time>2017-09-25T07:24:52Z</time>
      </trkpt>
      <trkpt lat="47.12639" lon="5.57536">
        <ele>216</ele>
        <time>2017-09-25T07:25:00Z</time>
      </trkpt>
      <trkpt lat="47.12643" lon="5.57534">
        <ele>216</ele>
        <time>2017-09-25T07:25:04Z</time>
      </trkpt>
      <trkpt lat="47.12652" lon="5.57526">
        <ele>215</ele>
        <time>2017-09-25T07:25:12Z</time>
      </trkpt>
      <trkpt lat="47.12663" lon="5.5751">
        <ele>213</ele>
        <time>2017-09-25T07:25:22Z</time>
      </trkpt>
      <trkpt lat="47.12667" lon="5.57504">
        <ele>213</ele>
        <time>2017-09-25T07:25:26Z</time>
      </trkpt>
      <trkpt lat="47.12673" lon="5.57484">
        <ele>213</ele>
        <time>2017-09-25T07:26:04Z</time>
      </trkpt>
      <trkpt lat="47.12679" lon="5.57458">
        <ele>212</ele>
        <time>2017-09-25T07:26:22Z</time>
      </trkpt>
      <trkpt lat="47.12679" lon="5.57443">
        <ele>211</ele>
        <time>2017-09-25T07:26:29Z</time>
      </trkpt>
      <trkpt lat="47.12681" lon="5.57428">
        <ele>211</ele>
        <time>2017-09-25T07:26:38Z</time>
      </trkpt>
      <trkpt lat="47.12678" lon="5.57413">
        <ele>210</ele>
        <time>2017-09-25T07:26:46Z</time>
      </trkpt>
      <trkpt lat="47.1268" lon="5.57388">
        <ele>210</ele>
        <time>2017-09-25T07:26:58Z</time>
      </trkpt>
      <trkpt lat="47.1268" lon="5.57381">
        <ele>210</ele>
        <time>2017-09-25T07:27:01Z</time>
      </trkpt>
      <trkpt lat="47.12677" lon="5.57343">
        <ele>211</ele>
        <time>2017-09-25T07:27:20Z</time>
      </trkpt>
      <trkpt lat="47.12676" lon="5.57336">
        <ele>211</ele>
        <time>2017-09-25T07:27:24Z</time>
      </trkpt>
      <trkpt lat="47.12674" lon="5.57329">
        <ele>211</ele>
        <time>2017-09-25T07:27:29Z</time>
      </trkpt>
      <trkpt lat="47.12672" lon="5.57317">
        <ele>211</ele>
        <time>2017-09-25T07:27:36Z</time>
      </trkpt>
      <trkpt lat="47.12669" lon="5.57302">
        <ele>210</ele>
        <time>2017-09-25T07:27:45Z</time>
      </trkpt>
      <trkpt lat="47.12669" lon="5.57295">
        <ele>209</ele>
        <time>2017-09-25T07:27:49Z</time>
      </trkpt>
      <trkpt lat="47.12664" lon="5.57266">
        <ele>209</ele>
        <time>2017-09-25T07:28:06Z</time>
      </trkpt>
      <trkpt lat="47.12663" lon="5.57259">
        <ele>210</ele>
        <time>2017-09-25T07:28:10Z</time>
      </trkpt>
      <trkpt lat="47.12656" lon="5.5724">
        <ele>211</ele>
        <time>2017-09-25T07:28:22Z</time>
      </trkpt>
      <trkpt lat="47.12654" lon="5.57233">
        <ele>211</ele>
        <time>2017-09-25T07:28:27Z</time>
      </trkpt>
      <trkpt lat="47.12652" lon="5.5722">
        <ele>212</ele>
        <time>2017-09-25T07:28:34Z</time>
      </trkpt>
      <trkpt lat="47.12651" lon="5.57206">
        <ele>211</ele>
        <time>2017-09-25T07:28:40Z</time>
      </trkpt>
      <trkpt lat="47.12641" lon="5.57162">
        <ele>210</ele>
        <time>2017-09-25T07:29:05Z</time>
      </trkpt>
      <trkpt lat="47.12638" lon="5.57156">
        <ele>210</ele>
        <time>2017-09-25T07:29:08Z</time>
      </trkpt>
      <trkpt lat="47.12635" lon="5.57149">
        <ele>211</ele>
        <time>2017-09-25T07:29:13Z</time>
      </trkpt>
      <trkpt lat="47.12635" lon="5.57142">
        <ele>211</ele>
        <time>2017-09-25T07:29:17Z</time>
      </trkpt>
      <trkpt lat="47.12633" lon="5.57135">
        <ele>212</ele>
        <time>2017-09-25T07:29:22Z</time>
      </trkpt>
      <trkpt lat="47.1263" lon="5.57131">
        <ele>212</ele>
        <time>2017-09-25T07:29:27Z</time>
      </trkpt>
      <trkpt lat="47.12627" lon="5.57117">
        <ele>211</ele>
        <time>2017-09-25T07:29:35Z</time>
      </trkpt>
      <trkpt lat="47.12626" lon="5.5711">
        <ele>210</ele>
        <time>2017-09-25T07:29:39Z</time>
      </trkpt>
      <trkpt lat="47.12627" lon="5.57103">
        <ele>210</ele>
        <time>2017-09-25T07:29:42Z</time>
      </trkpt>
      <trkpt lat="47.12625" lon="5.57087">
        <ele>210</ele>
        <time>2017-09-25T07:29:50Z</time>
      </trkpt>
      <trkpt lat="47.12623" lon="5.57081">
        <ele>210</ele>
        <time>2017-09-25T07:29:54Z</time>
      </trkpt>
      <trkpt lat="47.12622" lon="5.57067">
        <ele>212</ele>
        <time>2017-09-25T07:30:02Z</time>
      </trkpt>
      <trkpt lat="47.12623" lon="5.57059">
        <ele>214</ele>
        <time>2017-09-25T07:30:07Z</time>
      </trkpt>
      <trkpt lat="47.12624" lon="5.57052">
        <ele>214</ele>
        <time>2017-09-25T07:30:11Z</time>
      </trkpt>
      <trkpt lat="47.12623" lon="5.57045">
        <ele>214</ele>
        <time>2017-09-25T07:30:15Z</time>
      </trkpt>
      <trkpt lat="47.12626" lon="5.57031">
        <ele>214</ele>
        <time>2017-09-25T07:30:23Z</time>
      </trkpt>
      <trkpt lat="47.12635" lon="5.57003">
        <ele>213</ele>
        <time>2017-09-25T07:30:41Z</time>
      </trkpt>
      <trkpt lat="47.12636" lon="5.56996">
        <ele>213</ele>
        <time>2017-09-25T07:30:45Z</time>
      </trkpt>
      <trkpt lat="47.12635" lon="5.56981">
        <ele>215</ele>
        <time>2017-09-25T07:30:56Z</time>
      </trkpt>
      <trkpt lat="47.12631" lon="5.56977">
        <ele>215</ele>
        <time>2017-09-25T07:31:00Z</time>
      </trkpt>
      <trkpt lat="47.12626" lon="5.56973">
        <ele>216</ele>
        <time>2017-09-25T07:31:04Z</time>
      </trkpt>
      <trkpt lat="47.12622" lon="5.56969">
        <ele>216</ele>
        <time>2017-09-25T07:31:08Z</time>
      </trkpt>
      <trkpt lat="47.12613" lon="5.5696">
        <ele>215</ele>
        <time>2017-09-25T07:31:15Z</time>
      </trkpt>
      <trkpt lat="47.12605" lon="5.5695">
        <ele>213</ele>
        <time>2017-09-25T07:31:25Z</time>
      </trkpt>
      <trkpt lat="47.12588" lon="5.56935">
        <ele>210</ele>
        <time>2017-09-25T07:31:42Z</time>
      </trkpt>
      <trkpt lat="47.12576" lon="5.56921">
        <ele>209</ele>
        <time>2017-09-25T07:31:54Z</time>
      </trkpt>
      <trkpt lat="47.12568" lon="5.56915">
        <ele>208</ele>
        <time>2017-09-25T07:32:02Z</time>
      </trkpt>
      <trkpt lat="47.12565" lon="5.56909">
        <ele>208</ele>
        <time>2017-09-25T07:32:06Z</time>
      </trkpt>
      <trkpt lat="47.1256" lon="5.56906">
        <ele>209</ele>
        <time>2017-09-25T07:32:10Z</time>
      </trkpt>
      <trkpt lat="47.12556" lon="5.56901">
        <ele>209</ele>
        <time>2017-09-25T07:32:14Z</time>
      </trkpt>
      <trkpt lat="47.12548" lon="5.56893">
        <ele>209</ele>
        <time>2017-09-25T07:32:22Z</time>
      </trkpt>
      <trkpt lat="47.12525" lon="5.56868">
        <ele>211</ele>
        <time>2017-09-25T07:32:47Z</time>
      </trkpt>
      <trkpt lat="47.12514" lon="5.56856">
        <ele>210</ele>
        <time>2017-09-25T07:33:00Z</time>
      </trkpt>
      <trkpt lat="47.1251" lon="5.56852">
        <ele>210</ele>
        <time>2017-09-25T07:33:05Z</time>
      </trkpt>
      <trkpt lat="47.12497" lon="5.5684">
        <ele>209</ele>
        <time>2017-09-25T07:33:18Z</time>
      </trkpt>
      <trkpt lat="47.12488" lon="5.56834">
        <ele>210</ele>
        <time>2017-09-25T07:33:26Z</time>
      </trkpt>
      <trkpt lat="47.12479" lon="5.56827">
        <ele>209</ele>
        <time>2017-09-25T07:33:36Z</time>
      </trkpt>
      <trkpt lat="47.12475" lon="5.56825">
        <ele>210</ele>
        <time>2017-09-25T07:33:40Z</time>
      </trkpt>
      <trkpt lat="47.12465" lon="5.56822">
        <ele>209</ele>
        <time>2017-09-25T07:33:49Z</time>
      </trkpt>
      <trkpt lat="47.1246" lon="5.56822">
        <ele>210</ele>
        <time>2017-09-25T07:33:53Z</time>
      </trkpt>
      <trkpt lat="47.12454" lon="5.56822">
        <ele>210</ele>
        <time>2017-09-25T07:33:58Z</time>
      </trkpt>
      <trkpt lat="47.1245" lon="5.56823">
        <ele>211</ele>
        <time>2017-09-25T07:34:02Z</time>
      </trkpt>
      <trkpt lat="47.12436" lon="5.56833">
        <ele>212</ele>
        <time>2017-09-25T07:34:13Z</time>
      </trkpt>
      <trkpt lat="47.12432" lon="5.56834">
        <ele>212</ele>
        <time>2017-09-25T07:34:17Z</time>
      </trkpt>
      <trkpt lat="47.12417" lon="5.56843">
        <ele>211</ele>
        <time>2017-09-25T07:34:30Z</time>
      </trkpt>
      <trkpt lat="47.12413" lon="5.56845">
        <ele>210</ele>
        <time>2017-09-25T07:34:34Z</time>
      </trkpt>
      <trkpt lat="47.12403" lon="5.5685">
        <ele>209</ele>
        <time>2017-09-25T07:34:42Z</time>
      </trkpt>
      <trkpt lat="47.12398" lon="5.56847">
        <ele>209</ele>
        <time>2017-09-25T07:34:47Z</time>
      </trkpt>
      <trkpt lat="47.12378" lon="5.56854">
        <ele>207</ele>
        <time>2017-09-25T07:35:03Z</time>
      </trkpt>
      <trkpt lat="47.12368" lon="5.56855">
        <ele>207</ele>
        <time>2017-09-25T07:35:12Z</time>
      </trkpt>
      <trkpt lat="47.12354" lon="5.5686">
        <ele>207</ele>
        <time>2017-09-25T07:35:24Z</time>
      </trkpt>
      <trkpt lat="47.12349" lon="5.56861">
        <ele>207</ele>
        <time>2017-09-25T07:35:28Z</time>
      </trkpt>
      <trkpt lat="47.12344" lon="5.56862">
        <ele>207</ele>
        <time>2017-09-25T07:35:32Z</time>
      </trkpt>
      <trkpt lat="47.12334" lon="5.56863">
        <ele>205</ele>
        <time>2017-09-25T07:35:41Z</time>
      </trkpt>
      <trkpt lat="47.1233" lon="5.56866">
        <ele>205</ele>
        <time>2017-09-25T07:35:46Z</time>
      </trkpt>
      <trkpt lat="47.12314" lon="5.56869">
        <ele>202</ele>
        <time>2017-09-25T07:36:01Z</time>
      </trkpt>
      <trkpt lat="47.12312" lon="5.56865">
        <ele>202</ele>
        <time>2017-09-25T07:36:22Z</time>
      </trkpt>
      <trkpt lat="47.12312" lon="5.56858">
        <ele>203</ele>
        <time>2017-09-25T07:36:26Z</time>
      </trkpt>
      <trkpt lat="47.12309" lon="5.56821">
        <ele>207</ele>
        <time>2017-09-25T07:36:46Z</time>
      </trkpt>
      <trkpt lat="47.12309" lon="5.5676">
        <ele>211</ele>
        <time>2017-09-25T07:37:19Z</time>
      </trkpt>
      <trkpt lat="47.12309" lon="5.56745">
        <ele>214</ele>
        <time>2017-09-25T07:37:27Z</time>
      </trkpt>
      <trkpt lat="47.12308" lon="5.56738">
        <ele>214</ele>
        <time>2017-09-25T07:37:31Z</time>
      </trkpt>
      <trkpt lat="47.12306" lon="5.56732">
        <ele>214</ele>
        <time>2017-09-25T07:37:36Z</time>
      </trkpt>
      <trkpt lat="47.12305" lon="5.56725">
        <ele>214</ele>
        <time>2017-09-25T07:37:41Z</time>
      </trkpt>
      <trkpt lat="47.12306" lon="5.56719">
        <ele>213</ele>
        <time>2017-09-25T07:37:45Z</time>
      </trkpt>
      <trkpt lat="47.12307" lon="5.56698">
        <ele>214</ele>
        <time>2017-09-25T07:37:57Z</time>
      </trkpt>
      <trkpt lat="47.12306" lon="5.56683">
        <ele>214</ele>
        <time>2017-09-25T07:38:06Z</time>
      </trkpt>
      <trkpt lat="47.12309" lon="5.56633">
        <ele>217</ele>
        <time>2017-09-25T07:38:34Z</time>
      </trkpt>
      <trkpt lat="47.12312" lon="5.56605">
        <ele>216</ele>
        <time>2017-09-25T07:38:50Z</time>
      </trkpt>
      <trkpt lat="47.12319" lon="5.56579">
        <ele>214</ele>
        <time>2017-09-25T07:39:06Z</time>
      </trkpt>
      <trkpt lat="47.12329" lon="5.56561">
        <ele>214</ele>
        <time>2017-09-25T07:39:21Z</time>
      </trkpt>
      <trkpt lat="47.12333" lon="5.56555">
        <ele>214</ele>
        <time>2017-09-25T07:39:25Z</time>
      </trkpt>
      <trkpt lat="47.12335" lon="5.56548">
        <ele>214</ele>
        <time>2017-09-25T07:39:29Z</time>
      </trkpt>
      <trkpt lat="47.12339" lon="5.56542">
        <ele>213</ele>
        <time>2017-09-25T07:39:33Z</time>
      </trkpt>
      <trkpt lat="47.12343" lon="5.56538">
        <ele>213</ele>
        <time>2017-09-25T07:39:36Z</time>
      </trkpt>
      <trkpt lat="47.12346" lon="5.56533">
        <ele>214</ele>
        <time>2017-09-25T07:39:40Z</time>
      </trkpt>
      <trkpt lat="47.12358" lon="5.56517">
        <ele>215</ele>
        <time>2017-09-25T07:39:52Z</time>
      </trkpt>
      <trkpt lat="47.12383" lon="5.5648">
        <ele>212</ele>
        <time>2017-09-25T07:40:22Z</time>
      </trkpt>
      <trkpt lat="47.12389" lon="5.56469">
        <ele>212</ele>
        <time>2017-09-25T07:40:34Z</time>
      </trkpt>
      <trkpt lat="47.12393" lon="5.56464">
        <ele>212</ele>
        <time>2017-09-25T07:40:38Z</time>
      </trkpt>
      <trkpt lat="47.12396" lon="5.5646">
        <ele>212</ele>
        <time>2017-09-25T07:40:43Z</time>
      </trkpt>
      <trkpt lat="47.12401" lon="5.56456">
        <ele>214</ele>
        <time>2017-09-25T07:40:53Z</time>
      </trkpt>
      <trkpt lat="47.12408" lon="5.56446">
        <ele>214</ele>
        <time>2017-09-25T07:41:02Z</time>
      </trkpt>
      <trkpt lat="47.12427" lon="5.56411">
        <ele>213</ele>
        <time>2017-09-25T07:41:25Z</time>
      </trkpt>
      <trkpt lat="47.12439" lon="5.56396">
        <ele>214</ele>
        <time>2017-09-25T07:41:36Z</time>
      </trkpt>
      <trkpt lat="47.1245" lon="5.5638">
        <ele>213</ele>
        <time>2017-09-25T07:41:48Z</time>
      </trkpt>
      <trkpt lat="47.12453" lon="5.56375">
        <ele>213</ele>
        <time>2017-09-25T07:41:52Z</time>
      </trkpt>
      <trkpt lat="47.12456" lon="5.5636">
        <ele>214</ele>
        <time>2017-09-25T07:42:01Z</time>
      </trkpt>
      <trkpt lat="47.12458" lon="5.56352">
        <ele>214</ele>
        <time>2017-09-25T07:42:06Z</time>
      </trkpt>
      <trkpt lat="47.12463" lon="5.56338">
        <ele>214</ele>
        <time>2017-09-25T07:42:14Z</time>
      </trkpt>
      <trkpt lat="47.12467" lon="5.56326">
        <ele>217</ele>
        <time>2017-09-25T07:42:23Z</time>
      </trkpt>
      <trkpt lat="47.12469" lon="5.5632">
        <ele>217</ele>
        <time>2017-09-25T07:42:29Z</time>
      </trkpt>
      <trkpt lat="47.12473" lon="5.56317">
        <ele>217</ele>
        <time>2017-09-25T07:42:33Z</time>
      </trkpt>
      <trkpt lat="47.12479" lon="5.5631">
        <ele>216</ele>
        <time>2017-09-25T07:42:39Z</time>
      </trkpt>
      <trkpt lat="47.12482" lon="5.56303">
        <ele>216</ele>
        <time>2017-09-25T07:42:44Z</time>
      </trkpt>
      <trkpt lat="47.12484" lon="5.56289">
        <ele>216</ele>
        <time>2017-09-25T07:42:52Z</time>
      </trkpt>
      <trkpt lat="47.12488" lon="5.56288">
        <ele>216</ele>
        <time>2017-09-25T07:42:59Z</time>
      </trkpt>
      <trkpt lat="47.12493" lon="5.56283">
        <ele>215</ele>
        <time>2017-09-25T07:43:03Z</time>
      </trkpt>
      <trkpt lat="47.12494" lon="5.56276">
        <ele>215</ele>
        <time>2017-09-25T07:43:09Z</time>
      </trkpt>
      <trkpt lat="47.12495" lon="5.56278">
        <ele>216</ele>
        <time>2017-09-25T07:43:46Z</time>
      </trkpt>
      <trkpt lat="47.12496" lon="5.56285">
        <ele>217</ele>
        <time>2017-09-25T07:43:56Z</time>
      </trkpt>
      <trkpt lat="47.12502" lon="5.5629">
        <ele>217</ele>
        <time>2017-09-25T07:44:14Z</time>
      </trkpt>
      <trkpt lat="47.12507" lon="5.56292">
        <ele>218</ele>
        <time>2017-09-25T07:44:19Z</time>
      </trkpt>
      <trkpt lat="47.12515" lon="5.56302">
        <ele>218</ele>
        <time>2017-09-25T07:44:30Z</time>
      </trkpt>
      <trkpt lat="47.12524" lon="5.56322">
        <ele>222</ele>
        <time>2017-09-25T07:44:53Z</time>
      </trkpt>
      <trkpt lat="47.12527" lon="5.56329">
        <ele>222</ele>
        <time>2017-09-25T07:44:58Z</time>
      </trkpt>
      <trkpt lat="47.12531" lon="5.56333">
        <ele>222</ele>
        <time>2017-09-25T07:45:03Z</time>
      </trkpt>
      <trkpt lat="47.12535" lon="5.56337">
        <ele>223</ele>
        <time>2017-09-25T07:45:08Z</time>
      </trkpt>
      <trkpt lat="47.12539" lon="5.56342">
        <ele>224</ele>
        <time>2017-09-25T07:45:14Z</time>
      </trkpt>
      <trkpt lat="47.1254" lon="5.56349">
        <ele>224</ele>
        <time>2017-09-25T07:45:22Z</time>
      </trkpt>
      <trkpt lat="47.12541" lon="5.56355">
        <ele>225</ele>
        <time>2017-09-25T07:45:29Z</time>
      </trkpt>
      <trkpt lat="47.12544" lon="5.56351">
        <ele>228</ele>
        <time>2017-09-25T07:46:27Z</time>
      </trkpt>
      <trkpt lat="47.12547" lon="5.56345">
        <ele>230</ele>
        <time>2017-09-25T07:47:15Z</time>
      </trkpt>
      <trkpt lat="47.12555" lon="5.56343">
        <ele>231</ele>
        <time>2017-09-25T07:48:24Z</time>
      </trkpt>
      <trkpt lat="47.12559" lon="5.56349">
        <ele>231</ele>
        <time>2017-09-25T07:48:31Z</time>
      </trkpt>
      <trkpt lat="47.12564" lon="5.56351">
        <ele>231</ele>
        <time>2017-09-25T07:48:35Z</time>
      </trkpt>
      <trkpt lat="47.12569" lon="5.56355">
        <ele>232</ele>
        <time>2017-09-25T07:48:40Z</time>
      </trkpt>
      <trkpt lat="47.12573" lon="5.56356">
        <ele>232</ele>
        <time>2017-09-25T07:48:44Z</time>
      </trkpt>
      <trkpt lat="47.12577" lon="5.56359">
        <ele>232</ele>
        <time>2017-09-25T07:48:48Z</time>
      </trkpt>
      <trkpt lat="47.12583" lon="5.5637">
        <ele>234</ele>
        <time>2017-09-25T07:48:57Z</time>
      </trkpt>
      <trkpt lat="47.12588" lon="5.56374">
        <ele>234</ele>
        <time>2017-09-25T07:49:02Z</time>
      </trkpt>
      <trkpt lat="47.12592" lon="5.56378">
        <ele>234</ele>
        <time>2017-09-25T07:49:08Z</time>
      </trkpt>
      <trkpt lat="47.12596" lon="5.56381">
        <ele>234</ele>
        <time>2017-09-25T07:49:14Z</time>
      </trkpt>
      <trkpt lat="47.12605" lon="5.56387">
        <ele>235</ele>
        <time>2017-09-25T07:49:25Z</time>
      </trkpt>
      <trkpt lat="47.1261" lon="5.56387">
        <ele>236</ele>
        <time>2017-09-25T07:49:31Z</time>
      </trkpt>
      <trkpt lat="47.12614" lon="5.56391">
        <ele>236</ele>
        <time>2017-09-25T07:49:37Z</time>
      </trkpt>
      <trkpt lat="47.12617" lon="5.56398">
        <ele>237</ele>
        <time>2017-09-25T07:49:44Z</time>
      </trkpt>
      <trkpt lat="47.12622" lon="5.56398">
        <ele>238</ele>
        <time>2017-09-25T07:49:49Z</time>
      </trkpt>
      <trkpt lat="47.12627" lon="5.56396">
        <ele>239</ele>
        <time>2017-09-25T07:49:54Z</time>
      </trkpt>
      <trkpt lat="47.12632" lon="5.56401">
        <ele>240</ele>
        <time>2017-09-25T07:50:14Z</time>
      </trkpt>
      <trkpt lat="47.12637" lon="5.56399">
        <ele>239</ele>
        <time>2017-09-25T07:53:22Z</time>
      </trkpt>
      <trkpt lat="47.1264" lon="5.56406">
        <ele>238</ele>
        <time>2017-09-25T07:53:35Z</time>
      </trkpt>
      <trkpt lat="47.12643" lon="5.56414">
        <ele>236</ele>
        <time>2017-09-25T07:53:48Z</time>
      </trkpt>
      <trkpt lat="47.12647" lon="5.56421">
        <ele>236</ele>
        <time>2017-09-25T07:53:54Z</time>
      </trkpt>
      <trkpt lat="47.12651" lon="5.56425">
        <ele>236</ele>
        <time>2017-09-25T07:53:59Z</time>
      </trkpt>
      <trkpt lat="47.12663" lon="5.56435">
        <ele>238</ele>
        <time>2017-09-25T07:54:15Z</time>
      </trkpt>
      <trkpt lat="47.12668" lon="5.56439">
        <ele>238</ele>
        <time>2017-09-25T07:54:22Z</time>
      </trkpt>
      <trkpt lat="47.12678" lon="5.5644">
        <ele>239</ele>
        <time>2017-09-25T07:54:33Z</time>
      </trkpt>
      <trkpt lat="47.12682" lon="5.56445">
        <ele>240</ele>
        <time>2017-09-25T07:54:38Z</time>
      </trkpt>
      <trkpt lat="47.12683" lon="5.56451">
        <ele>240</ele>
        <time>2017-09-25T07:54:43Z</time>
      </trkpt>
      <trkpt lat="47.12685" lon="5.56458">
        <ele>241</ele>
        <time>2017-09-25T07:54:48Z</time>
      </trkpt>
      <trkpt lat="47.1269" lon="5.56461">
        <ele>242</ele>
        <time>2017-09-25T07:54:53Z</time>
      </trkpt>
      <trkpt lat="47.12695" lon="5.56461">
        <ele>243</ele>
        <time>2017-09-25T07:54:58Z</time>
      </trkpt>
      <trkpt lat="47.127" lon="5.56464">
        <ele>243</ele>
        <time>2017-09-25T07:55:04Z</time>
      </trkpt>
      <trkpt lat="47.12703" lon="5.56469">
        <ele>243</ele>
        <time>2017-09-25T07:55:09Z</time>
      </trkpt>
      <trkpt lat="47.12708" lon="5.56472">
        <ele>243</ele>
        <time>2017-09-25T07:55:15Z</time>
      </trkpt>
      <trkpt lat="47.12713" lon="5.56473">
        <ele>244</ele>
        <time>2017-09-25T07:55:20Z</time>
      </trkpt>
      <trkpt lat="47.12717" lon="5.56477">
        <ele>244</ele>
        <time>2017-09-25T07:55:26Z</time>
      </trkpt>
      <trkpt lat="47.12723" lon="5.56489">
        <ele>245</ele>
        <time>2017-09-25T07:55:36Z</time>
      </trkpt>
      <trkpt lat="47.12728" lon="5.56492">
        <ele>246</ele>
        <time>2017-09-25T07:55:43Z</time>
      </trkpt>
      <trkpt lat="47.12732" lon="5.56492">
        <ele>247</ele>
        <time>2017-09-25T07:55:49Z</time>
      </trkpt>
      <trkpt lat="47.12737" lon="5.56504">
        <ele>248</ele>
        <time>2017-09-25T07:56:01Z</time>
      </trkpt>
      <trkpt lat="47.12744" lon="5.56513">
        <ele>250</ele>
        <time>2017-09-25T07:56:14Z</time>
      </trkpt>
      <trkpt lat="47.12747" lon="5.56519">
        <ele>251</ele>
        <time>2017-09-25T07:56:21Z</time>
      </trkpt>
      <trkpt lat="47.12745" lon="5.56525">
        <ele>250</ele>
        <time>2017-09-25T07:56:29Z</time>
      </trkpt>
      <trkpt lat="47.12749" lon="5.56529">
        <ele>250</ele>
        <time>2017-09-25T07:56:34Z</time>
      </trkpt>
      <trkpt lat="47.12754" lon="5.56533">
        <ele>249</ele>
        <time>2017-09-25T07:56:38Z</time>
      </trkpt>
      <trkpt lat="47.12757" lon="5.56539">
        <ele>249</ele>
        <time>2017-09-25T07:56:42Z</time>
      </trkpt>
      <trkpt lat="47.12758" lon="5.56539">
        <ele>248</ele>
        <time>2017-09-25T07:57:48Z</time>
      </trkpt>
      <trkpt lat="47.12757" lon="5.56532">
        <ele>248</ele>
        <time>2017-09-25T07:57:55Z</time>
      </trkpt>
      <trkpt lat="47.12752" lon="5.56528">
        <ele>249</ele>
        <time>2017-09-25T07:58:13Z</time>
      </trkpt>
      <trkpt lat="47.12754" lon="5.5653">
        <ele>249</ele>
        <time>2017-09-25T08:03:49Z</time>
      </trkpt>
      <trkpt lat="47.1276" lon="5.56535">
        <ele>248</ele>
        <time>2017-09-25T08:04:04Z</time>
      </trkpt>
      <trkpt lat="47.12762" lon="5.56541">
        <ele>248</ele>
        <time>2017-09-25T08:04:09Z</time>
      </trkpt>
      <trkpt lat="47.1277" lon="5.56552">
        <ele>249</ele>
        <time>2017-09-25T08:04:20Z</time>
      </trkpt>
      <trkpt lat="47.12778" lon="5.56554">
        <ele>249</ele>
        <time>2017-09-25T08:04:26Z</time>
      </trkpt>
      <trkpt lat="47.12783" lon="5.56555">
        <ele>249</ele>
        <time>2017-09-25T08:04:31Z</time>
      </trkpt>
      <trkpt lat="47.12789" lon="5.56556">
        <ele>249</ele>
        <time>2017-09-25T08:04:36Z</time>
      </trkpt>
      <trkpt lat="47.12793" lon="5.56559">
        <ele>249</ele>
        <time>2017-09-25T08:04:41Z</time>
      </trkpt>
      <trkpt lat="47.12801" lon="5.56569">
        <ele>251</ele>
        <time>2017-09-25T08:04:49Z</time>
      </trkpt>
      <trkpt lat="47.12809" lon="5.5658">
        <ele>252</ele>
        <time>2017-09-25T08:04:59Z</time>
      </trkpt>
      <trkpt lat="47.12812" lon="5.56581">
        <ele>250</ele>
        <time>2017-09-25T08:06:10Z</time>
      </trkpt>
      <trkpt lat="47.12815" lon="5.56586">
        <ele>251</ele>
        <time>2017-09-25T08:06:14Z</time>
      </trkpt>
      <trkpt lat="47.1282" lon="5.566">
        <ele>251</ele>
        <time>2017-09-25T08:06:23Z</time>
      </trkpt>
      <trkpt lat="47.12828" lon="5.5661">
        <ele>250</ele>
        <time>2017-09-25T08:06:31Z</time>
      </trkpt>
      <trkpt lat="47.12843" lon="5.56628">
        <ele>250</ele>
        <time>2017-09-25T08:06:49Z</time>
      </trkpt>
      <trkpt lat="47.12847" lon="5.56633">
        <ele>252</ele>
        <time>2017-09-25T08:06:54Z</time>
      </trkpt>
      <trkpt lat="47.12852" lon="5.56635">
        <ele>252</ele>
        <time>2017-09-25T08:06:58Z</time>
      </trkpt>
      <trkpt lat="47.12857" lon="5.56637">
        <ele>252</ele>
        <time>2017-09-25T08:07:02Z</time>
      </trkpt>
      <trkpt lat="47.12861" lon="5.56641">
        <ele>252</ele>
        <time>2017-09-25T08:07:07Z</time>
      </trkpt>
      <trkpt lat="47.12866" lon="5.56645">
        <ele>252</ele>
        <time>2017-09-25T08:07:12Z</time>
      </trkpt>
      <trkpt lat="47.12875" lon="5.5665">
        <ele>251</ele>
        <time>2017-09-25T08:07:19Z</time>
      </trkpt>
      <trkpt lat="47.12879" lon="5.56653">
        <ele>251</ele>
        <time>2017-09-25T08:07:23Z</time>
      </trkpt>
      <trkpt lat="47.12889" lon="5.56663">
        <ele>251</ele>
        <time>2017-09-25T08:07:32Z</time>
      </trkpt>
      <trkpt lat="47.12892" lon="5.56667">
        <ele>251</ele>
        <time>2017-09-25T08:07:36Z</time>
      </trkpt>
      <trkpt lat="47.12896" lon="5.56672">
        <ele>251</ele>
        <time>2017-09-25T08:07:40Z</time>
      </trkpt>
      <trkpt lat="47.12904" lon="5.56682">
        <ele>251</ele>
        <time>2017-09-25T08:07:48Z</time>
      </trkpt>
      <trkpt lat="47.1291" lon="5.56694">
        <ele>252</ele>
        <time>2017-09-25T08:07:57Z</time>
      </trkpt>
      <trkpt lat="47.12914" lon="5.56699">
        <ele>252</ele>
        <time>2017-09-25T08:08:01Z</time>
      </trkpt>
      <trkpt lat="47.12932" lon="5.56711">
        <ele>254</ele>
        <time>2017-09-25T08:08:18Z</time>
      </trkpt>
      <trkpt lat="47.12938" lon="5.56714">
        <ele>253</ele>
        <time>2017-09-25T08:08:23Z</time>
      </trkpt>
      <trkpt lat="47.12942" lon="5.56719">
        <ele>253</ele>
        <time>2017-09-25T08:08:28Z</time>
      </trkpt>
      <trkpt lat="47.12947" lon="5.56733">
        <ele>252</ele>
        <time>2017-09-25T08:08:37Z</time>
      </trkpt>
      <trkpt lat="47.12953" lon="5.56754">
        <ele>251</ele>
        <time>2017-09-25T08:08:51Z</time>
      </trkpt>
      <trkpt lat="47.12957" lon="5.56759">
        <ele>252</ele>
        <time>2017-09-25T08:08:56Z</time>
      </trkpt>
      <trkpt lat="47.12966" lon="5.56766">
        <ele>252</ele>
        <time>2017-09-25T08:09:03Z</time>
      </trkpt>
      <trkpt lat="47.12986" lon="5.5679">
        <ele>255</ele>
        <time>2017-09-25T08:09:26Z</time>
      </trkpt>
      <trkpt lat="47.12991" lon="5.56792">
        <ele>256</ele>
        <time>2017-09-25T08:09:30Z</time>
      </trkpt>
      <trkpt lat="47.13" lon="5.568">
        <ele>256</ele>
        <time>2017-09-25T08:09:39Z</time>
      </trkpt>
      <trkpt lat="47.13018" lon="5.56809">
        <ele>257</ele>
        <time>2017-09-25T08:09:55Z</time>
      </trkpt>
      <trkpt lat="47.13034" lon="5.56827">
        <ele>256</ele>
        <time>2017-09-25T08:10:12Z</time>
      </trkpt>
      <trkpt lat="47.13036" lon="5.56833">
        <ele>256</ele>
        <time>2017-09-25T08:10:17Z</time>
      </trkpt>
      <trkpt lat="47.13048" lon="5.56848">
        <ele>255</ele>
        <time>2017-09-25T08:10:32Z</time>
      </trkpt>
      <trkpt lat="47.13051" lon="5.56852">
        <ele>255</ele>
        <time>2017-09-25T08:10:40Z</time>
      </trkpt>
      <trkpt lat="47.13058" lon="5.56861">
        <ele>255</ele>
        <time>2017-09-25T08:11:13Z</time>
      </trkpt>
      <trkpt lat="47.13066" lon="5.56869">
        <ele>254</ele>
        <time>2017-09-25T08:11:22Z</time>
      </trkpt>
      <trkpt lat="47.13073" lon="5.5688">
        <ele>253</ele>
        <time>2017-09-25T08:11:29Z</time>
      </trkpt>
      <trkpt lat="47.13075" lon="5.56887">
        <ele>253</ele>
        <time>2017-09-25T08:11:34Z</time>
      </trkpt>
      <trkpt lat="47.13077" lon="5.56894">
        <ele>254</ele>
        <time>2017-09-25T08:11:38Z</time>
      </trkpt>
      <trkpt lat="47.13079" lon="5.56908">
        <ele>255</ele>
        <time>2017-09-25T08:11:45Z</time>
      </trkpt>
      <trkpt lat="47.13083" lon="5.56921">
        <ele>256</ele>
        <time>2017-09-25T08:11:55Z</time>
      </trkpt>
      <trkpt lat="47.13085" lon="5.56928">
        <ele>256</ele>
        <time>2017-09-25T08:11:59Z</time>
      </trkpt>
      <trkpt lat="47.13087" lon="5.56934">
        <ele>256</ele>
        <time>2017-09-25T08:12:03Z</time>
      </trkpt>
      <trkpt lat="47.13088" lon="5.56941">
        <ele>256</ele>
        <time>2017-09-25T08:12:07Z</time>
      </trkpt>
      <trkpt lat="47.13094" lon="5.56952">
        <ele>256</ele>
        <time>2017-09-25T08:12:13Z</time>
      </trkpt>
      <trkpt lat="47.13098" lon="5.56957">
        <ele>256</ele>
        <time>2017-09-25T08:12:17Z</time>
      </trkpt>
      <trkpt lat="47.13101" lon="5.56964">
        <ele>256</ele>
        <time>2017-09-25T08:12:20Z</time>
      </trkpt>
      <trkpt lat="47.13103" lon="5.5697">
        <ele>256</ele>
        <time>2017-09-25T08:12:23Z</time>
      </trkpt>
      <trkpt lat="47.13105" lon="5.56977">
        <ele>256</ele>
        <time>2017-09-25T08:12:26Z</time>
      </trkpt>
      <trkpt lat="47.13109" lon="5.56982">
        <ele>255</ele>
        <time>2017-09-25T08:12:31Z</time>
      </trkpt>
      <trkpt lat="47.13112" lon="5.56994">
        <ele>255</ele>
        <time>2017-09-25T08:12:36Z</time>
      </trkpt>
      <trkpt lat="47.13119" lon="5.57015">
        <ele>256</ele>
        <time>2017-09-25T08:12:47Z</time>
      </trkpt>
      <trkpt lat="47.13121" lon="5.57021">
        <ele>257</ele>
        <time>2017-09-25T08:12:50Z</time>
      </trkpt>
      <trkpt lat="47.13125" lon="5.57026">
        <ele>257</ele>
        <time>2017-09-25T08:12:53Z</time>
      </trkpt>
      <trkpt lat="47.1313" lon="5.57031">
        <ele>257</ele>
        <time>2017-09-25T08:12:57Z</time>
      </trkpt>
      <trkpt lat="47.13132" lon="5.57039">
        <ele>257</ele>
        <time>2017-09-25T08:13:01Z</time>
      </trkpt>
      <trkpt lat="47.13135" lon="5.57044">
        <ele>257</ele>
        <time>2017-09-25T08:13:04Z</time>
      </trkpt>
      <trkpt lat="47.1314" lon="5.57049">
        <ele>256</ele>
        <time>2017-09-25T08:13:07Z</time>
      </trkpt>
      <trkpt lat="47.13144" lon="5.57055">
        <ele>255</ele>
        <time>2017-09-25T08:13:11Z</time>
      </trkpt>
      <trkpt lat="47.13146" lon="5.57062">
        <ele>254</ele>
        <time>2017-09-25T08:13:14Z</time>
      </trkpt>
      <trkpt lat="47.13148" lon="5.57069">
        <ele>254</ele>
        <time>2017-09-25T08:13:18Z</time>
      </trkpt>
      <trkpt lat="47.13153" lon="5.5708">
        <ele>254</ele>
        <time>2017-09-25T08:13:25Z</time>
      </trkpt>
      <trkpt lat="47.13158" lon="5.57093">
        <ele>254</ele>
        <time>2017-09-25T08:13:31Z</time>
      </trkpt>
      <trkpt lat="47.13162" lon="5.57099">
        <ele>254</ele>
        <time>2017-09-25T08:13:35Z</time>
      </trkpt>
      <trkpt lat="47.13167" lon="5.57112">
        <ele>253</ele>
        <time>2017-09-25T08:13:42Z</time>
      </trkpt>
      <trkpt lat="47.1317" lon="5.57117">
        <ele>253</ele>
        <time>2017-09-25T08:13:45Z</time>
      </trkpt>
      <trkpt lat="47.13176" lon="5.57131">
        <ele>254</ele>
        <time>2017-09-25T08:13:52Z</time>
      </trkpt>
      <trkpt lat="47.13183" lon="5.57142">
        <ele>255</ele>
        <time>2017-09-25T08:13:59Z</time>
      </trkpt>
      <trkpt lat="47.1319" lon="5.5715">
        <ele>255</ele>
        <time>2017-09-25T08:14:06Z</time>
      </trkpt>
      <trkpt lat="47.13206" lon="5.57166">
        <ele>256</ele>
        <time>2017-09-25T08:14:17Z</time>
      </trkpt>
      <trkpt lat="47.1321" lon="5.57171">
        <ele>257</ele>
        <time>2017-09-25T08:14:20Z</time>
      </trkpt>
      <trkpt lat="47.13218" lon="5.57182">
        <ele>257</ele>
        <time>2017-09-25T08:14:27Z</time>
      </trkpt>
      <trkpt lat="47.13223" lon="5.57185">
        <ele>257</ele>
        <time>2017-09-25T08:14:31Z</time>
      </trkpt>
      <trkpt lat="47.13249" lon="5.57199">
        <ele>257</ele>
        <time>2017-09-25T08:14:48Z</time>
      </trkpt>
      <trkpt lat="47.13253" lon="5.572">
        <ele>256</ele>
        <time>2017-09-25T08:14:51Z</time>
      </trkpt>
      <trkpt lat="47.13269" lon="5.57205">
        <ele>257</ele>
        <time>2017-09-25T08:15:02Z</time>
      </trkpt>
      <trkpt lat="47.13277" lon="5.57215">
        <ele>256</ele>
        <time>2017-09-25T08:15:09Z</time>
      </trkpt>
      <trkpt lat="47.13284" lon="5.57226">
        <ele>257</ele>
        <time>2017-09-25T08:15:16Z</time>
      </trkpt>
      <trkpt lat="47.13293" lon="5.57245">
        <ele>258</ele>
        <time>2017-09-25T08:15:27Z</time>
      </trkpt>
      <trkpt lat="47.13297" lon="5.57259">
        <ele>258</ele>
        <time>2017-09-25T08:15:35Z</time>
      </trkpt>
      <trkpt lat="47.13299" lon="5.57265">
        <ele>258</ele>
        <time>2017-09-25T08:15:39Z</time>
      </trkpt>
      <trkpt lat="47.133" lon="5.57272">
        <ele>259</ele>
        <time>2017-09-25T08:15:43Z</time>
      </trkpt>
      <trkpt lat="47.13306" lon="5.57272">
        <ele>258</ele>
        <time>2017-09-25T08:16:08Z</time>
      </trkpt>
      <trkpt lat="47.13309" lon="5.57284">
        <ele>255</ele>
        <time>2017-09-25T08:16:48Z</time>
      </trkpt>
      <trkpt lat="47.1332" lon="5.57323">
        <ele>256</ele>
        <time>2017-09-25T08:17:12Z</time>
      </trkpt>
      <trkpt lat="47.13321" lon="5.57331">
        <ele>256</ele>
        <time>2017-09-25T08:17:16Z</time>
      </trkpt>
      <trkpt lat="47.13322" lon="5.5734">
        <ele>257</ele>
        <time>2017-09-25T08:17:20Z</time>
      </trkpt>
      <trkpt lat="47.13328" lon="5.57353">
        <ele>257</ele>
        <time>2017-09-25T08:17:28Z</time>
      </trkpt>
      <trkpt lat="47.1333" lon="5.57361">
        <ele>258</ele>
        <time>2017-09-25T08:17:34Z</time>
      </trkpt>
      <trkpt lat="47.13332" lon="5.57368">
        <ele>258</ele>
        <time>2017-09-25T08:17:38Z</time>
      </trkpt>
      <trkpt lat="47.13338" lon="5.57387">
        <ele>258</ele>
        <time>2017-09-25T08:17:50Z</time>
      </trkpt>
      <trkpt lat="47.13344" lon="5.57398">
        <ele>257</ele>
        <time>2017-09-25T08:17:58Z</time>
      </trkpt>
      <trkpt lat="47.13353" lon="5.57417">
        <ele>256</ele>
        <time>2017-09-25T08:18:12Z</time>
      </trkpt>
      <trkpt lat="47.13361" lon="5.57437">
        <ele>256</ele>
        <time>2017-09-25T08:18:23Z</time>
      </trkpt>
      <trkpt lat="47.13363" lon="5.57444">
        <ele>256</ele>
        <time>2017-09-25T08:18:27Z</time>
      </trkpt>
      <trkpt lat="47.13365" lon="5.5745">
        <ele>255</ele>
        <time>2017-09-25T08:18:31Z</time>
      </trkpt>
      <trkpt lat="47.13379" lon="5.57483">
        <ele>255</ele>
        <time>2017-09-25T08:18:53Z</time>
      </trkpt>
      <trkpt lat="47.13383" lon="5.57488">
        <ele>255</ele>
        <time>2017-09-25T08:18:58Z</time>
      </trkpt>
      <trkpt lat="47.13385" lon="5.57495">
        <ele>255</ele>
        <time>2017-09-25T08:19:03Z</time>
      </trkpt>
      <trkpt lat="47.1339" lon="5.57499">
        <ele>253</ele>
        <time>2017-09-25T08:19:19Z</time>
      </trkpt>
      <trkpt lat="47.13396" lon="5.57509">
        <ele>252</ele>
        <time>2017-09-25T08:19:37Z</time>
      </trkpt>
      <trkpt lat="47.13399" lon="5.57515">
        <ele>252</ele>
        <time>2017-09-25T08:19:41Z</time>
      </trkpt>
      <trkpt lat="47.13403" lon="5.57519">
        <ele>253</ele>
        <time>2017-09-25T08:19:47Z</time>
      </trkpt>
      <trkpt lat="47.13408" lon="5.57523">
        <ele>253</ele>
        <time>2017-09-25T08:19:51Z</time>
      </trkpt>
      <trkpt lat="47.13408" lon="5.5753">
        <ele>253</ele>
        <time>2017-09-25T08:19:56Z</time>
      </trkpt>
      <trkpt lat="47.13411" lon="5.57536">
        <ele>253</ele>
        <time>2017-09-25T08:20:00Z</time>
      </trkpt>
      <trkpt lat="47.13414" lon="5.57542">
        <ele>252</ele>
        <time>2017-09-25T08:20:05Z</time>
      </trkpt>
      <trkpt lat="47.1342" lon="5.57552">
        <ele>252</ele>
        <time>2017-09-25T08:20:14Z</time>
      </trkpt>
      <trkpt lat="47.13423" lon="5.57557">
        <ele>252</ele>
        <time>2017-09-25T08:20:19Z</time>
      </trkpt>
      <trkpt lat="47.13426" lon="5.57564">
        <ele>252</ele>
        <time>2017-09-25T08:20:23Z</time>
      </trkpt>
      <trkpt lat="47.13429" lon="5.57571">
        <ele>251</ele>
        <time>2017-09-25T08:20:27Z</time>
      </trkpt>
      <trkpt lat="47.13436" lon="5.57581">
        <ele>250</ele>
        <time>2017-09-25T08:20:35Z</time>
      </trkpt>
      <trkpt lat="47.13439" lon="5.57586">
        <ele>249</ele>
        <time>2017-09-25T08:20:39Z</time>
      </trkpt>
      <trkpt lat="47.13447" lon="5.57598">
        <ele>249</ele>
        <time>2017-09-25T08:20:48Z</time>
      </trkpt>
      <trkpt lat="47.13451" lon="5.57602">
        <ele>249</ele>
        <time>2017-09-25T08:20:52Z</time>
      </trkpt>
      <trkpt lat="47.13454" lon="5.57609">
        <ele>247</ele>
        <time>2017-09-25T08:20:57Z</time>
      </trkpt>
      <trkpt lat="47.13457" lon="5.57615">
        <ele>246</ele>
        <time>2017-09-25T08:21:01Z</time>
      </trkpt>
      <trkpt lat="47.13465" lon="5.57635">
        <ele>244</ele>
        <time>2017-09-25T08:21:14Z</time>
      </trkpt>
      <trkpt lat="47.1347" lon="5.57647">
        <ele>244</ele>
        <time>2017-09-25T08:21:20Z</time>
      </trkpt>
      <trkpt lat="47.13476" lon="5.57658">
        <ele>243</ele>
        <time>2017-09-25T08:21:30Z</time>
      </trkpt>
      <trkpt lat="47.13488" lon="5.5768">
        <ele>242</ele>
        <time>2017-09-25T08:21:46Z</time>
      </trkpt>
      <trkpt lat="47.13497" lon="5.57687">
        <ele>241</ele>
        <time>2017-09-25T08:21:55Z</time>
      </trkpt>
      <trkpt lat="47.135" lon="5.57694">
        <ele>240</ele>
        <time>2017-09-25T08:22:01Z</time>
      </trkpt>
      <trkpt lat="47.13507" lon="5.57705">
        <ele>240</ele>
        <time>2017-09-25T08:22:09Z</time>
      </trkpt>
      <trkpt lat="47.13513" lon="5.57716">
        <ele>241</ele>
        <time>2017-09-25T08:22:18Z</time>
      </trkpt>
      <trkpt lat="47.1352" lon="5.57726">
        <ele>240</ele>
        <time>2017-09-25T08:22:24Z</time>
      </trkpt>
      <trkpt lat="47.13529" lon="5.57744">
        <ele>241</ele>
        <time>2017-09-25T08:22:40Z</time>
      </trkpt>
      <trkpt lat="47.13539" lon="5.57768">
        <ele>239</ele>
        <time>2017-09-25T08:22:58Z</time>
      </trkpt>
      <trkpt lat="47.13541" lon="5.57781">
        <ele>237</ele>
        <time>2017-09-25T08:23:07Z</time>
      </trkpt>
      <trkpt lat="47.13545" lon="5.57809">
        <ele>236</ele>
        <time>2017-09-25T08:23:22Z</time>
      </trkpt>
      <trkpt lat="47.13552" lon="5.57878">
        <ele>230</ele>
        <time>2017-09-25T08:23:52Z</time>
      </trkpt>
      <trkpt lat="47.13553" lon="5.57885">
        <ele>230</ele>
        <time>2017-09-25T08:23:56Z</time>
      </trkpt>
      <trkpt lat="47.13557" lon="5.57926">
        <ele>229</ele>
        <time>2017-09-25T08:24:15Z</time>
      </trkpt>
      <trkpt lat="47.13559" lon="5.57934">
        <ele>228</ele>
        <time>2017-09-25T08:24:19Z</time>
      </trkpt>
      <trkpt lat="47.13559" lon="5.57941">
        <ele>228</ele>
        <time>2017-09-25T08:24:22Z</time>
      </trkpt>
      <trkpt lat="47.1356" lon="5.57949">
        <ele>227</ele>
        <time>2017-09-25T08:24:25Z</time>
      </trkpt>
      <trkpt lat="47.13561" lon="5.57965">
        <ele>227</ele>
        <time>2017-09-25T08:24:32Z</time>
      </trkpt>
      <trkpt lat="47.1356" lon="5.57973">
        <ele>226</ele>
        <time>2017-09-25T08:24:36Z</time>
      </trkpt>
      <trkpt lat="47.13558" lon="5.57979">
        <ele>226</ele>
        <time>2017-09-25T08:24:39Z</time>
      </trkpt>
      <trkpt lat="47.13553" lon="5.57992">
        <ele>225</ele>
        <time>2017-09-25T08:24:46Z</time>
      </trkpt>
      <trkpt lat="47.1355" lon="5.57997">
        <ele>225</ele>
        <time>2017-09-25T08:24:49Z</time>
      </trkpt>
      <trkpt lat="47.13545" lon="5.58002">
        <ele>224</ele>
        <time>2017-09-25T08:24:53Z</time>
      </trkpt>
      <trkpt lat="47.13532" lon="5.5803">
        <ele>223</ele>
        <time>2017-09-25T08:25:09Z</time>
      </trkpt>
      <trkpt lat="47.13532" lon="5.58037">
        <ele>223</ele>
        <time>2017-09-25T08:25:12Z</time>
      </trkpt>
      <trkpt lat="47.13534" lon="5.58054">
        <ele>222</ele>
        <time>2017-09-25T08:25:18Z</time>
      </trkpt>
      <trkpt lat="47.13534" lon="5.58063">
        <ele>221</ele>
        <time>2017-09-25T08:25:22Z</time>
      </trkpt>
      <trkpt lat="47.13533" lon="5.5807">
        <ele>221</ele>
        <time>2017-09-25T08:25:25Z</time>
      </trkpt>
      <trkpt lat="47.13529" lon="5.58077">
        <ele>220</ele>
        <time>2017-09-25T08:25:29Z</time>
      </trkpt>
      <trkpt lat="47.13527" lon="5.58083">
        <ele>220</ele>
        <time>2017-09-25T08:25:33Z</time>
      </trkpt>
      <trkpt lat="47.13526" lon="5.5811">
        <ele>219</ele>
        <time>2017-09-25T08:25:43Z</time>
      </trkpt>
      <trkpt lat="47.13526" lon="5.58118">
        <ele>219</ele>
        <time>2017-09-25T08:25:47Z</time>
      </trkpt>
      <trkpt lat="47.13526" lon="5.58125">
        <ele>219</ele>
        <time>2017-09-25T08:25:51Z</time>
      </trkpt>
      <trkpt lat="47.13523" lon="5.58131">
        <ele>219</ele>
        <time>2017-09-25T08:25:55Z</time>
      </trkpt>
      <trkpt lat="47.13519" lon="5.58135">
        <ele>219</ele>
        <time>2017-09-25T08:25:59Z</time>
      </trkpt>
      <trkpt lat="47.13517" lon="5.58141">
        <ele>219</ele>
        <time>2017-09-25T08:26:02Z</time>
      </trkpt>
      <trkpt lat="47.13517" lon="5.5815">
        <ele>219</ele>
        <time>2017-09-25T08:26:06Z</time>
      </trkpt>
      <trkpt lat="47.13517" lon="5.58159">
        <ele>218</ele>
        <time>2017-09-25T08:26:10Z</time>
      </trkpt>
      <trkpt lat="47.13517" lon="5.58172">
        <ele>216</ele>
        <time>2017-09-25T08:26:16Z</time>
      </trkpt>
      <trkpt lat="47.13518" lon="5.58179">
        <ele>216</ele>
        <time>2017-09-25T08:26:19Z</time>
      </trkpt>
      <trkpt lat="47.13518" lon="5.58193">
        <ele>216</ele>
        <time>2017-09-25T08:26:25Z</time>
      </trkpt>
      <trkpt lat="47.13519" lon="5.582">
        <ele>215</ele>
        <time>2017-09-25T08:26:28Z</time>
      </trkpt>
      <trkpt lat="47.13516" lon="5.58215">
        <ele>214</ele>
        <time>2017-09-25T08:26:35Z</time>
      </trkpt>
      <trkpt lat="47.13516" lon="5.5825">
        <ele>212</ele>
        <time>2017-09-25T08:26:50Z</time>
      </trkpt>
      <trkpt lat="47.13515" lon="5.58257">
        <ele>212</ele>
        <time>2017-09-25T08:26:53Z</time>
      </trkpt>
      <trkpt lat="47.13515" lon="5.58264">
        <ele>212</ele>
        <time>2017-09-25T08:26:57Z</time>
      </trkpt>
      <trkpt lat="47.13514" lon="5.58271">
        <ele>212</ele>
        <time>2017-09-25T08:27:01Z</time>
      </trkpt>
      <trkpt lat="47.13514" lon="5.5828">
        <ele>212</ele>
        <time>2017-09-25T08:27:04Z</time>
      </trkpt>
      <trkpt lat="47.13508" lon="5.58296">
        <ele>210</ele>
        <time>2017-09-25T08:27:13Z</time>
      </trkpt>
      <trkpt lat="47.13505" lon="5.58311">
        <ele>209</ele>
        <time>2017-09-25T08:27:21Z</time>
      </trkpt>
      <trkpt lat="47.13509" lon="5.58335">
        <ele>207</ele>
        <time>2017-09-25T08:27:30Z</time>
      </trkpt>
      <trkpt lat="47.1351" lon="5.58343">
        <ele>207</ele>
        <time>2017-09-25T08:27:33Z</time>
      </trkpt>
      <trkpt lat="47.13509" lon="5.58351">
        <ele>207</ele>
        <time>2017-09-25T08:27:37Z</time>
      </trkpt>
      <trkpt lat="47.13504" lon="5.58363">
        <ele>207</ele>
        <time>2017-09-25T08:27:43Z</time>
      </trkpt>
      <trkpt lat="47.13506" lon="5.58415">
        <ele>209</ele>
        <time>2017-09-25T08:28:06Z</time>
      </trkpt>
      <trkpt lat="47.13508" lon="5.58421">
        <ele>210</ele>
        <time>2017-09-25T08:28:10Z</time>
      </trkpt>
      <trkpt lat="47.13508" lon="5.58436">
        <ele>210</ele>
        <time>2017-09-25T08:28:18Z</time>
      </trkpt>
      <trkpt lat="47.13508" lon="5.58443">
        <ele>210</ele>
        <time>2017-09-25T08:28:24Z</time>
      </trkpt>
      <trkpt lat="47.13506" lon="5.5845">
        <ele>209</ele>
        <time>2017-09-25T08:29:50Z</time>
      </trkpt>
      <trkpt lat="47.13504" lon="5.58464">
        <ele>213</ele>
        <time>2017-09-25T08:29:59Z</time>
      </trkpt>
      <trkpt lat="47.135" lon="5.5847">
        <ele>213</ele>
        <time>2017-09-25T08:30:03Z</time>
      </trkpt>
      <trkpt lat="47.13498" lon="5.58478">
        <ele>212</ele>
        <time>2017-09-25T08:30:07Z</time>
      </trkpt>
      <trkpt lat="47.13497" lon="5.58486">
        <ele>212</ele>
        <time>2017-09-25T08:30:11Z</time>
      </trkpt>
      <trkpt lat="47.13493" lon="5.58491">
        <ele>212</ele>
        <time>2017-09-25T08:30:15Z</time>
      </trkpt>
      <trkpt lat="47.1349" lon="5.58496">
        <ele>211</ele>
        <time>2017-09-25T08:30:20Z</time>
      </trkpt>
      <trkpt lat="47.13485" lon="5.58501">
        <ele>211</ele>
        <time>2017-09-25T08:30:24Z</time>
      </trkpt>
      <trkpt lat="47.13481" lon="5.58504">
        <ele>210</ele>
        <time>2017-09-25T08:30:27Z</time>
      </trkpt>
      <trkpt lat="47.13477" lon="5.58508">
        <ele>210</ele>
        <time>2017-09-25T08:30:30Z</time>
      </trkpt>
      <trkpt lat="47.13474" lon="5.58513">
        <ele>210</ele>
        <time>2017-09-25T08:30:34Z</time>
      </trkpt>
      <trkpt lat="47.1346" lon="5.58522">
        <ele>210</ele>
        <time>2017-09-25T08:30:47Z</time>
      </trkpt>
      <trkpt lat="47.13455" lon="5.58519">
        <ele>210</ele>
        <time>2017-09-25T08:30:53Z</time>
      </trkpt>
      <trkpt lat="47.13452" lon="5.58515">
        <ele>210</ele>
        <time>2017-09-25T08:30:57Z</time>
      </trkpt>
      <trkpt lat="47.1344" lon="5.58503">
        <ele>211</ele>
        <time>2017-09-25T08:31:10Z</time>
      </trkpt>
      <trkpt lat="47.13437" lon="5.58498">
        <ele>211</ele>
        <time>2017-09-25T08:31:14Z</time>
      </trkpt>
      <trkpt lat="47.13433" lon="5.58492">
        <ele>210</ele>
        <time>2017-09-25T08:31:18Z</time>
      </trkpt>
      <trkpt lat="47.13428" lon="5.58488">
        <ele>210</ele>
        <time>2017-09-25T08:31:22Z</time>
      </trkpt>
      <trkpt lat="47.13413" lon="5.58482">
        <ele>210</ele>
        <time>2017-09-25T08:31:36Z</time>
      </trkpt>
      <trkpt lat="47.13408" lon="5.58484">
        <ele>210</ele>
        <time>2017-09-25T08:31:41Z</time>
      </trkpt>
      <trkpt lat="47.13404" lon="5.58481">
        <ele>210</ele>
        <time>2017-09-25T08:31:46Z</time>
      </trkpt>
      <trkpt lat="47.13399" lon="5.58477">
        <ele>209</ele>
        <time>2017-09-25T08:31:54Z</time>
      </trkpt>
      <trkpt lat="47.13394" lon="5.58476">
        <ele>208</ele>
        <time>2017-09-25T08:31:58Z</time>
      </trkpt>
      <trkpt lat="47.13389" lon="5.58481">
        <ele>207</ele>
        <time>2017-09-25T08:32:02Z</time>
      </trkpt>
      <trkpt lat="47.13384" lon="5.58483">
        <ele>206</ele>
        <time>2017-09-25T08:32:06Z</time>
      </trkpt>
      <trkpt lat="47.1338" lon="5.58481">
        <ele>205</ele>
        <time>2017-09-25T08:32:09Z</time>
      </trkpt>
      <trkpt lat="47.13375" lon="5.5848">
        <ele>205</ele>
        <time>2017-09-25T08:32:13Z</time>
      </trkpt>
      <trkpt lat="47.1337" lon="5.5848">
        <ele>205</ele>
        <time>2017-09-25T08:32:19Z</time>
      </trkpt>
      <trkpt lat="47.13369" lon="5.58466">
        <ele>203</ele>
        <time>2017-09-25T08:32:28Z</time>
      </trkpt>
      <trkpt lat="47.13368" lon="5.58453">
        <ele>202</ele>
        <time>2017-09-25T08:32:38Z</time>
      </trkpt>
      <trkpt lat="47.13369" lon="5.58445">
        <ele>201</ele>
        <time>2017-09-25T08:32:44Z</time>
      </trkpt>
      <trkpt lat="47.13368" lon="5.58438">
        <ele>200</ele>
        <time>2017-09-25T08:32:49Z</time>
      </trkpt>
      <trkpt lat="47.13368" lon="5.58429">
        <ele>200</ele>
        <time>2017-09-25T08:32:53Z</time>
      </trkpt>
      <trkpt lat="47.13371" lon="5.58416">
        <ele>199</ele>
        <time>2017-09-25T08:32:59Z</time>
      </trkpt>
      <trkpt lat="47.13371" lon="5.58402">
        <ele>199</ele>
        <time>2017-09-25T08:33:05Z</time>
      </trkpt>
      <trkpt lat="47.13374" lon="5.58387">
        <ele>199</ele>
        <time>2017-09-25T08:33:12Z</time>
      </trkpt>
      <trkpt lat="47.13376" lon="5.58381">
        <ele>198</ele>
        <time>2017-09-25T08:33:16Z</time>
      </trkpt>
      <trkpt lat="47.13381" lon="5.58342">
        <ele>195</ele>
        <time>2017-09-25T08:33:37Z</time>
      </trkpt>
      <trkpt lat="47.13382" lon="5.58334">
        <ele>196</ele>
        <time>2017-09-25T08:33:41Z</time>
      </trkpt>
      <trkpt lat="47.13383" lon="5.58325">
        <ele>197</ele>
        <time>2017-09-25T08:33:45Z</time>
      </trkpt>
      <trkpt lat="47.13383" lon="5.58311">
        <ele>198</ele>
        <time>2017-09-25T08:33:53Z</time>
      </trkpt>
      <trkpt lat="47.13382" lon="5.58287">
        <ele>197</ele>
        <time>2017-09-25T08:34:05Z</time>
      </trkpt>
      <trkpt lat="47.13383" lon="5.5828">
        <ele>197</ele>
        <time>2017-09-25T08:34:09Z</time>
      </trkpt>
      <trkpt lat="47.13381" lon="5.58266">
        <ele>195</ele>
        <time>2017-09-25T08:34:17Z</time>
      </trkpt>
      <trkpt lat="47.13381" lon="5.58259">
        <ele>194</ele>
        <time>2017-09-25T08:34:21Z</time>
      </trkpt>
      <trkpt lat="47.13383" lon="5.58244">
        <ele>193</ele>
        <time>2017-09-25T08:34:29Z</time>
      </trkpt>
      <trkpt lat="47.13385" lon="5.58231">
        <ele>193</ele>
        <time>2017-09-25T08:34:37Z</time>
      </trkpt>
      <trkpt lat="47.13387" lon="5.58224">
        <ele>192</ele>
        <time>2017-09-25T08:34:41Z</time>
      </trkpt>
      <trkpt lat="47.13389" lon="5.58215">
        <ele>192</ele>
        <time>2017-09-25T08:34:45Z</time>
      </trkpt>
      <trkpt lat="47.13391" lon="5.58209">
        <ele>192</ele>
        <time>2017-09-25T08:34:48Z</time>
      </trkpt>
      <trkpt lat="47.13393" lon="5.58203">
        <ele>192</ele>
        <time>2017-09-25T08:34:51Z</time>
      </trkpt>
      <trkpt lat="47.13396" lon="5.58189">
        <ele>194</ele>
        <time>2017-09-25T08:34:58Z</time>
      </trkpt>
      <trkpt lat="47.13397" lon="5.58157">
        <ele>193</ele>
        <time>2017-09-25T08:35:18Z</time>
      </trkpt>
      <trkpt lat="47.13404" lon="5.58127">
        <ele>192</ele>
        <time>2017-09-25T08:35:31Z</time>
      </trkpt>
      <trkpt lat="47.13404" lon="5.58113">
        <ele>192</ele>
        <time>2017-09-25T08:35:37Z</time>
      </trkpt>
      <trkpt lat="47.13404" lon="5.58105">
        <ele>193</ele>
        <time>2017-09-25T08:35:42Z</time>
      </trkpt>
      <trkpt lat="47.13409" lon="5.58085">
        <ele>197</ele>
        <time>2017-09-25T08:35:54Z</time>
      </trkpt>
      <trkpt lat="47.13409" lon="5.58077">
        <ele>198</ele>
        <time>2017-09-25T08:35:58Z</time>
      </trkpt>
      <trkpt lat="47.13411" lon="5.5807">
        <ele>199</ele>
        <time>2017-09-25T08:36:02Z</time>
      </trkpt>
      <trkpt lat="47.13413" lon="5.58055">
        <ele>199</ele>
        <time>2017-09-25T08:36:12Z</time>
      </trkpt>
      <trkpt lat="47.13417" lon="5.58042">
        <ele>199</ele>
        <time>2017-09-25T08:36:22Z</time>
      </trkpt>
      <trkpt lat="47.13423" lon="5.57982">
        <ele>202</ele>
        <time>2017-09-25T08:36:54Z</time>
      </trkpt>
      <trkpt lat="47.13424" lon="5.57967">
        <ele>201</ele>
        <time>2017-09-25T08:37:03Z</time>
      </trkpt>
      <trkpt lat="47.13425" lon="5.5796">
        <ele>201</ele>
        <time>2017-09-25T08:37:06Z</time>
      </trkpt>
      <trkpt lat="47.13428" lon="5.57946">
        <ele>200</ele>
        <time>2017-09-25T08:37:14Z</time>
      </trkpt>
      <trkpt lat="47.13431" lon="5.57941">
        <ele>199</ele>
        <time>2017-09-25T08:37:19Z</time>
      </trkpt>
      <trkpt lat="47.13431" lon="5.57933">
        <ele>199</ele>
        <time>2017-09-25T08:37:26Z</time>
      </trkpt>
      <trkpt lat="47.1343" lon="5.57926">
        <ele>200</ele>
        <time>2017-09-25T08:37:29Z</time>
      </trkpt>
      <trkpt lat="47.13428" lon="5.57913">
        <ele>201</ele>
        <time>2017-09-25T08:37:44Z</time>
      </trkpt>
      <trkpt lat="47.13428" lon="5.57898">
        <ele>202</ele>
        <time>2017-09-25T08:37:52Z</time>
      </trkpt>
      <trkpt lat="47.13429" lon="5.57883">
        <ele>202</ele>
        <time>2017-09-25T08:37:58Z</time>
      </trkpt>
      <trkpt lat="47.13429" lon="5.57874">
        <ele>202</ele>
        <time>2017-09-25T08:38:03Z</time>
      </trkpt>
      <trkpt lat="47.13431" lon="5.57866">
        <ele>203</ele>
        <time>2017-09-25T08:38:08Z</time>
      </trkpt>
      <trkpt lat="47.13425" lon="5.57813">
        <ele>206</ele>
        <time>2017-09-25T08:38:41Z</time>
      </trkpt>
      <trkpt lat="47.13417" lon="5.57773">
        <ele>205</ele>
        <time>2017-09-25T08:39:02Z</time>
      </trkpt>
      <trkpt lat="47.13415" lon="5.57767">
        <ele>205</ele>
        <time>2017-09-25T08:39:06Z</time>
      </trkpt>
      <trkpt lat="47.13408" lon="5.57756">
        <ele>204</ele>
        <time>2017-09-25T08:39:14Z</time>
      </trkpt>
      <trkpt lat="47.13405" lon="5.57743">
        <ele>204</ele>
        <time>2017-09-25T08:39:21Z</time>
      </trkpt>
      <trkpt lat="47.13402" lon="5.57729">
        <ele>203</ele>
        <time>2017-09-25T08:39:28Z</time>
      </trkpt>
      <trkpt lat="47.13397" lon="5.57717">
        <ele>203</ele>
        <time>2017-09-25T08:39:34Z</time>
      </trkpt>
      <trkpt lat="47.13386" lon="5.57699">
        <ele>204</ele>
        <time>2017-09-25T08:39:45Z</time>
      </trkpt>
      <trkpt lat="47.13379" lon="5.57686">
        <ele>204</ele>
        <time>2017-09-25T08:39:53Z</time>
      </trkpt>
      <trkpt lat="47.13368" lon="5.5767">
        <ele>204</ele>
        <time>2017-09-25T08:40:04Z</time>
      </trkpt>
      <trkpt lat="47.13351" lon="5.57652">
        <ele>206</ele>
        <time>2017-09-25T08:40:19Z</time>
      </trkpt>
      <trkpt lat="47.13346" lon="5.57648">
        <ele>206</ele>
        <time>2017-09-25T08:40:23Z</time>
      </trkpt>
      <trkpt lat="47.13341" lon="5.57643">
        <ele>206</ele>
        <time>2017-09-25T08:40:27Z</time>
      </trkpt>
      <trkpt lat="47.13324" lon="5.57625">
        <ele>206</ele>
        <time>2017-09-25T08:40:42Z</time>
      </trkpt>
      <trkpt lat="47.1331" lon="5.57615">
        <ele>205</ele>
        <time>2017-09-25T08:40:56Z</time>
      </trkpt>
      <trkpt lat="47.13302" lon="5.57605">
        <ele>205</ele>
        <time>2017-09-25T08:41:05Z</time>
      </trkpt>
      <trkpt lat="47.13293" lon="5.57596">
        <ele>205</ele>
        <time>2017-09-25T08:41:13Z</time>
      </trkpt>
      <trkpt lat="47.13288" lon="5.57591">
        <ele>204</ele>
        <time>2017-09-25T08:41:17Z</time>
      </trkpt>
      <trkpt lat="47.13283" lon="5.57587">
        <ele>204</ele>
        <time>2017-09-25T08:41:20Z</time>
      </trkpt>
      <trkpt lat="47.13279" lon="5.57583">
        <ele>204</ele>
        <time>2017-09-25T08:41:24Z</time>
      </trkpt>
      <trkpt lat="47.13255" lon="5.57538">
        <ele>204</ele>
        <time>2017-09-25T08:41:55Z</time>
      </trkpt>
      <trkpt lat="47.13247" lon="5.57526">
        <ele>204</ele>
        <time>2017-09-25T08:42:03Z</time>
      </trkpt>
      <trkpt lat="47.13243" lon="5.57521">
        <ele>204</ele>
        <time>2017-09-25T08:42:07Z</time>
      </trkpt>
      <trkpt lat="47.13239" lon="5.57518">
        <ele>204</ele>
        <time>2017-09-25T08:42:11Z</time>
      </trkpt>
      <trkpt lat="47.13225" lon="5.57496">
        <ele>206</ele>
        <time>2017-09-25T08:42:27Z</time>
      </trkpt>
      <trkpt lat="47.13224" lon="5.57489">
        <ele>206</ele>
        <time>2017-09-25T08:42:30Z</time>
      </trkpt>
      <trkpt lat="47.13215" lon="5.57469">
        <ele>205</ele>
        <time>2017-09-25T08:42:40Z</time>
      </trkpt>
      <trkpt lat="47.13212" lon="5.57462">
        <ele>206</ele>
        <time>2017-09-25T08:42:45Z</time>
      </trkpt>
      <trkpt lat="47.1321" lon="5.57455">
        <ele>206</ele>
        <time>2017-09-25T08:42:49Z</time>
      </trkpt>
      <trkpt lat="47.13207" lon="5.57447">
        <ele>205</ele>
        <time>2017-09-25T08:42:53Z</time>
      </trkpt>
      <trkpt lat="47.13205" lon="5.57441">
        <ele>205</ele>
        <time>2017-09-25T08:42:57Z</time>
      </trkpt>
      <trkpt lat="47.13202" lon="5.57435">
        <ele>205</ele>
        <time>2017-09-25T08:43:01Z</time>
      </trkpt>
      <trkpt lat="47.13197" lon="5.57423">
        <ele>205</ele>
        <time>2017-09-25T08:43:08Z</time>
      </trkpt>
      <trkpt lat="47.13192" lon="5.57418">
        <ele>205</ele>
        <time>2017-09-25T08:43:12Z</time>
      </trkpt>
      <trkpt lat="47.13189" lon="5.57412">
        <ele>205</ele>
        <time>2017-09-25T08:43:15Z</time>
      </trkpt>
      <trkpt lat="47.13182" lon="5.57393">
        <ele>205</ele>
        <time>2017-09-25T08:43:27Z</time>
      </trkpt>
      <trkpt lat="47.1318" lon="5.57384">
        <ele>205</ele>
        <time>2017-09-25T08:43:31Z</time>
      </trkpt>
      <trkpt lat="47.13175" lon="5.57371">
        <ele>204</ele>
        <time>2017-09-25T08:43:39Z</time>
      </trkpt>
      <trkpt lat="47.13171" lon="5.57357">
        <ele>203</ele>
        <time>2017-09-25T08:43:48Z</time>
      </trkpt>
      <trkpt lat="47.1317" lon="5.57349">
        <ele>203</ele>
        <time>2017-09-25T08:43:52Z</time>
      </trkpt>
      <trkpt lat="47.13167" lon="5.57342">
        <ele>204</ele>
        <time>2017-09-25T08:43:56Z</time>
      </trkpt>
      <trkpt lat="47.13166" lon="5.57336">
        <ele>204</ele>
        <time>2017-09-25T08:43:59Z</time>
      </trkpt>
      <trkpt lat="47.13152" lon="5.57305">
        <ele>204</ele>
        <time>2017-09-25T08:44:19Z</time>
      </trkpt>
      <trkpt lat="47.1315" lon="5.57297">
        <ele>204</ele>
        <time>2017-09-25T08:44:23Z</time>
      </trkpt>
      <trkpt lat="47.13144" lon="5.57286">
        <ele>204</ele>
        <time>2017-09-25T08:44:30Z</time>
      </trkpt>
      <trkpt lat="47.13141" lon="5.5728">
        <ele>204</ele>
        <time>2017-09-25T08:44:33Z</time>
      </trkpt>
      <trkpt lat="47.13139" lon="5.57272">
        <ele>204</ele>
        <time>2017-09-25T08:44:38Z</time>
      </trkpt>
      <trkpt lat="47.13136" lon="5.57267">
        <ele>205</ele>
        <time>2017-09-25T08:44:42Z</time>
      </trkpt>
      <trkpt lat="47.13133" lon="5.5726">
        <ele>205</ele>
        <time>2017-09-25T08:44:46Z</time>
      </trkpt>
      <trkpt lat="47.1313" lon="5.57255">
        <ele>204</ele>
        <time>2017-09-25T08:44:50Z</time>
      </trkpt>
      <trkpt lat="47.13127" lon="5.57248">
        <ele>204</ele>
        <time>2017-09-25T08:44:55Z</time>
      </trkpt>
      <trkpt lat="47.13125" lon="5.57242">
        <ele>203</ele>
        <time>2017-09-25T08:44:59Z</time>
      </trkpt>
      <trkpt lat="47.13123" lon="5.57235">
        <ele>203</ele>
        <time>2017-09-25T08:45:03Z</time>
      </trkpt>
      <trkpt lat="47.13121" lon="5.57228">
        <ele>203</ele>
        <time>2017-09-25T08:45:07Z</time>
      </trkpt>
      <trkpt lat="47.13113" lon="5.57207">
        <ele>202</ele>
        <time>2017-09-25T08:45:19Z</time>
      </trkpt>
      <trkpt lat="47.13087" lon="5.5716">
        <ele>202</ele>
        <time>2017-09-25T08:45:51Z</time>
      </trkpt>
      <trkpt lat="47.1308" lon="5.5715">
        <ele>202</ele>
        <time>2017-09-25T08:46:00Z</time>
      </trkpt>
      <trkpt lat="47.13074" lon="5.57137">
        <ele>203</ele>
        <time>2017-09-25T08:46:09Z</time>
      </trkpt>
      <trkpt lat="47.13066" lon="5.57127">
        <ele>203</ele>
        <time>2017-09-25T08:46:17Z</time>
      </trkpt>
      <trkpt lat="47.13062" lon="5.57123">
        <ele>202</ele>
        <time>2017-09-25T08:46:20Z</time>
      </trkpt>
      <trkpt lat="47.13051" lon="5.57109">
        <ele>203</ele>
        <time>2017-09-25T08:46:32Z</time>
      </trkpt>
      <trkpt lat="47.13046" lon="5.57107">
        <ele>203</ele>
        <time>2017-09-25T08:46:41Z</time>
      </trkpt>
      <trkpt lat="47.1304" lon="5.57096">
        <ele>203</ele>
        <time>2017-09-25T08:46:48Z</time>
      </trkpt>
      <trkpt lat="47.13019" lon="5.57041">
        <ele>204</ele>
        <time>2017-09-25T08:47:21Z</time>
      </trkpt>
      <trkpt lat="47.13016" lon="5.57034">
        <ele>203</ele>
        <time>2017-09-25T08:47:26Z</time>
      </trkpt>
      <trkpt lat="47.13013" lon="5.57029">
        <ele>203</ele>
        <time>2017-09-25T08:47:29Z</time>
      </trkpt>
      <trkpt lat="47.13008" lon="5.57016">
        <ele>203</ele>
        <time>2017-09-25T08:47:37Z</time>
      </trkpt>
      <trkpt lat="47.12997" lon="5.56993">
        <ele>202</ele>
        <time>2017-09-25T08:47:53Z</time>
      </trkpt>
      <trkpt lat="47.12995" lon="5.56986">
        <ele>202</ele>
        <time>2017-09-25T08:47:57Z</time>
      </trkpt>
      <trkpt lat="47.12984" lon="5.56967">
        <ele>202</ele>
        <time>2017-09-25T08:48:09Z</time>
      </trkpt>
      <trkpt lat="47.12972" lon="5.56951">
        <ele>204</ele>
        <time>2017-09-25T08:48:22Z</time>
      </trkpt>
      <trkpt lat="47.12969" lon="5.56946">
        <ele>204</ele>
        <time>2017-09-25T08:48:26Z</time>
      </trkpt>
      <trkpt lat="47.1296" lon="5.56927">
        <ele>204</ele>
        <time>2017-09-25T08:48:38Z</time>
      </trkpt>
      <trkpt lat="47.12956" lon="5.56921">
        <ele>204</ele>
        <time>2017-09-25T08:48:42Z</time>
      </trkpt>
      <trkpt lat="47.12952" lon="5.56915">
        <ele>204</ele>
        <time>2017-09-25T08:48:47Z</time>
      </trkpt>
      <trkpt lat="47.12936" lon="5.56878">
        <ele>207</ele>
        <time>2017-09-25T08:49:13Z</time>
      </trkpt>
      <trkpt lat="47.12928" lon="5.56869">
        <ele>208</ele>
        <time>2017-09-25T08:49:20Z</time>
      </trkpt>
      <trkpt lat="47.12925" lon="5.56864">
        <ele>207</ele>
        <time>2017-09-25T08:49:23Z</time>
      </trkpt>
      <trkpt lat="47.12921" lon="5.5686">
        <ele>207</ele>
        <time>2017-09-25T08:49:27Z</time>
      </trkpt>
      <trkpt lat="47.12919" lon="5.56853">
        <ele>206</ele>
        <time>2017-09-25T08:49:30Z</time>
      </trkpt>
      <trkpt lat="47.12916" lon="5.56848">
        <ele>206</ele>
        <time>2017-09-25T08:49:34Z</time>
      </trkpt>
      <trkpt lat="47.12913" lon="5.56843">
        <ele>206</ele>
        <time>2017-09-25T08:49:37Z</time>
      </trkpt>
      <trkpt lat="47.12908" lon="5.5683">
        <ele>205</ele>
        <time>2017-09-25T08:49:45Z</time>
      </trkpt>
      <trkpt lat="47.12905" lon="5.56825">
        <ele>204</ele>
        <time>2017-09-25T08:49:49Z</time>
      </trkpt>
      <trkpt lat="47.1289" lon="5.56802">
        <ele>204</ele>
        <time>2017-09-25T08:50:05Z</time>
      </trkpt>
      <trkpt lat="47.12872" lon="5.5677">
        <ele>205</ele>
        <time>2017-09-25T08:50:27Z</time>
      </trkpt>
      <trkpt lat="47.12838" lon="5.56731">
        <ele>204</ele>
        <time>2017-09-25T08:51:01Z</time>
      </trkpt>
      <trkpt lat="47.12829" lon="5.56722">
        <ele>205</ele>
        <time>2017-09-25T08:51:10Z</time>
      </trkpt>
      <trkpt lat="47.12825" lon="5.56716">
        <ele>206</ele>
        <time>2017-09-25T08:51:15Z</time>
      </trkpt>
      <trkpt lat="47.12821" lon="5.56712">
        <ele>206</ele>
        <time>2017-09-25T08:51:20Z</time>
      </trkpt>
      <trkpt lat="47.12816" lon="5.56707">
        <ele>206</ele>
        <time>2017-09-25T08:51:24Z</time>
      </trkpt>
      <trkpt lat="47.12808" lon="5.56697">
        <ele>205</ele>
        <time>2017-09-25T08:51:31Z</time>
      </trkpt>
      <trkpt lat="47.12804" lon="5.56691">
        <ele>204</ele>
        <time>2017-09-25T08:51:35Z</time>
      </trkpt>
      <trkpt lat="47.12798" lon="5.5668">
        <ele>205</ele>
        <time>2017-09-25T08:51:43Z</time>
      </trkpt>
      <trkpt lat="47.12794" lon="5.56675">
        <ele>205</ele>
        <time>2017-09-25T08:51:47Z</time>
      </trkpt>
      <trkpt lat="47.12788" lon="5.56662">
        <ele>204</ele>
        <time>2017-09-25T08:51:56Z</time>
      </trkpt>
      <trkpt lat="47.12781" lon="5.56643">
        <ele>205</ele>
        <time>2017-09-25T08:52:10Z</time>
      </trkpt>
      <trkpt lat="47.12779" lon="5.56637">
        <ele>204</ele>
        <time>2017-09-25T08:52:16Z</time>
      </trkpt>
      <trkpt lat="47.12778" lon="5.5663">
        <ele>204</ele>
        <time>2017-09-25T08:52:24Z</time>
      </trkpt>
      <trkpt lat="47.12776" lon="5.56623">
        <ele>204</ele>
        <time>2017-09-25T08:52:37Z</time>
      </trkpt>
      <trkpt lat="47.1277" lon="5.56627">
        <ele>205</ele>
        <time>2017-09-25T08:53:12Z</time>
      </trkpt>
      <trkpt lat="47.12773" lon="5.56633">
        <ele>205</ele>
        <time>2017-09-25T08:53:19Z</time>
      </trkpt>
      <trkpt lat="47.12772" lon="5.56631">
        <ele>205</ele>
        <time>2017-09-25T08:54:13Z</time>
      </trkpt>
      <trkpt lat="47.12769" lon="5.56623">
        <ele>205</ele>
        <time>2017-09-25T08:54:42Z</time>
      </trkpt>
      <trkpt lat="47.12764" lon="5.5662">
        <ele>206</ele>
        <time>2017-09-25T08:56:32Z</time>
      </trkpt>
      <trkpt lat="47.1276" lon="5.56608">
        <ele>205</ele>
        <time>2017-09-25T08:57:17Z</time>
      </trkpt>
      <trkpt lat="47.1274" lon="5.56583">
        <ele>201</ele>
        <time>2017-09-25T08:57:44Z</time>
      </trkpt>
      <trkpt lat="47.12732" lon="5.56574">
        <ele>201</ele>
        <time>2017-09-25T08:57:54Z</time>
      </trkpt>
      <trkpt lat="47.12728" lon="5.56567">
        <ele>201</ele>
        <time>2017-09-25T08:57:59Z</time>
      </trkpt>
      <trkpt lat="47.12716" lon="5.56554">
        <ele>201</ele>
        <time>2017-09-25T08:58:13Z</time>
      </trkpt>
      <trkpt lat="47.12711" lon="5.5655">
        <ele>201</ele>
        <time>2017-09-25T08:58:17Z</time>
      </trkpt>
      <trkpt lat="47.12688" lon="5.56518">
        <ele>198</ele>
        <time>2017-09-25T08:58:41Z</time>
      </trkpt>
      <trkpt lat="47.12683" lon="5.56514">
        <ele>198</ele>
        <time>2017-09-25T08:58:45Z</time>
      </trkpt>
      <trkpt lat="47.12679" lon="5.56509">
        <ele>198</ele>
        <time>2017-09-25T08:58:49Z</time>
      </trkpt>
      <trkpt lat="47.1267" lon="5.565">
        <ele>198</ele>
        <time>2017-09-25T08:58:57Z</time>
      </trkpt>
      <trkpt lat="47.12657" lon="5.56488">
        <ele>201</ele>
        <time>2017-09-25T08:59:11Z</time>
      </trkpt>
      <trkpt lat="47.12649" lon="5.56477">
        <ele>201</ele>
        <time>2017-09-25T08:59:20Z</time>
      </trkpt>
      <trkpt lat="47.12647" lon="5.56471">
        <ele>200</ele>
        <time>2017-09-25T08:59:24Z</time>
      </trkpt>
      <trkpt lat="47.12643" lon="5.56466">
        <ele>199</ele>
        <time>2017-09-25T08:59:28Z</time>
      </trkpt>
      <trkpt lat="47.12638" lon="5.56463">
        <ele>199</ele>
        <time>2017-09-25T08:59:31Z</time>
      </trkpt>
      <trkpt lat="47.1263" lon="5.56456">
        <ele>198</ele>
        <time>2017-09-25T08:59:37Z</time>
      </trkpt>
      <trkpt lat="47.12626" lon="5.56453">
        <ele>198</ele>
        <time>2017-09-25T08:59:40Z</time>
      </trkpt>
      <trkpt lat="47.12612" lon="5.56442">
        <ele>198</ele>
        <time>2017-09-25T08:59:51Z</time>
      </trkpt>
      <trkpt lat="47.12601" lon="5.5643">
        <ele>198</ele>
        <time>2017-09-25T09:00:04Z</time>
      </trkpt>
      <trkpt lat="47.12597" lon="5.56424">
        <ele>199</ele>
        <time>2017-09-25T09:00:08Z</time>
      </trkpt>
      <trkpt lat="47.12593" lon="5.56418">
        <ele>199</ele>
        <time>2017-09-25T09:00:12Z</time>
      </trkpt>
      <trkpt lat="47.12589" lon="5.56414">
        <ele>199</ele>
        <time>2017-09-25T09:00:16Z</time>
      </trkpt>
      <trkpt lat="47.12575" lon="5.56404">
        <ele>199</ele>
        <time>2017-09-25T09:00:27Z</time>
      </trkpt>
      <trkpt lat="47.12546" lon="5.56375">
        <ele>203</ele>
        <time>2017-09-25T09:00:58Z</time>
      </trkpt>
      <trkpt lat="47.12536" lon="5.56371">
        <ele>204</ele>
        <time>2017-09-25T09:01:06Z</time>
      </trkpt>
      <trkpt lat="47.12519" lon="5.56358">
        <ele>205</ele>
        <time>2017-09-25T09:01:22Z</time>
      </trkpt>
      <trkpt lat="47.12504" lon="5.56347">
        <ele>207</ele>
        <time>2017-09-25T09:01:37Z</time>
      </trkpt>
      <trkpt lat="47.12501" lon="5.56341">
        <ele>207</ele>
        <time>2017-09-25T09:01:41Z</time>
      </trkpt>
      <trkpt lat="47.12496" lon="5.56337">
        <ele>208</ele>
        <time>2017-09-25T09:01:45Z</time>
      </trkpt>
      <trkpt lat="47.12487" lon="5.56333">
        <ele>208</ele>
        <time>2017-09-25T09:01:53Z</time>
      </trkpt>
      <trkpt lat="47.12483" lon="5.56328">
        <ele>209</ele>
        <time>2017-09-25T09:01:58Z</time>
      </trkpt>
      <trkpt lat="47.1248" lon="5.56321">
        <ele>208</ele>
        <time>2017-09-25T09:02:02Z</time>
      </trkpt>
      <trkpt lat="47.12476" lon="5.56316">
        <ele>208</ele>
        <time>2017-09-25T09:02:07Z</time>
      </trkpt>
      <trkpt lat="47.12471" lon="5.56312">
        <ele>208</ele>
        <time>2017-09-25T09:02:15Z</time>
      </trkpt>
      <trkpt lat="47.12466" lon="5.56314">
        <ele>208</ele>
        <time>2017-09-25T09:02:19Z</time>
      </trkpt>
      <trkpt lat="47.12462" lon="5.56318">
        <ele>209</ele>
        <time>2017-09-25T09:02:23Z</time>
      </trkpt>
      <trkpt lat="47.12458" lon="5.56331">
        <ele>209</ele>
        <time>2017-09-25T09:02:32Z</time>
      </trkpt>
      <trkpt lat="47.12451" lon="5.56359">
        <ele>209</ele>
        <time>2017-09-25T09:02:48Z</time>
      </trkpt>
      <trkpt lat="47.12447" lon="5.56371">
        <ele>209</ele>
        <time>2017-09-25T09:02:56Z</time>
      </trkpt>
      <trkpt lat="47.12435" lon="5.56388">
        <ele>210</ele>
        <time>2017-09-25T09:03:10Z</time>
      </trkpt>
      <trkpt lat="47.12423" lon="5.5641">
        <ele>208</ele>
        <time>2017-09-25T09:03:27Z</time>
      </trkpt>
      <trkpt lat="47.12413" lon="5.56426">
        <ele>208</ele>
        <time>2017-09-25T09:03:41Z</time>
      </trkpt>
      <trkpt lat="47.12409" lon="5.56432">
        <ele>209</ele>
        <time>2017-09-25T09:03:46Z</time>
      </trkpt>
      <trkpt lat="47.12406" lon="5.56438">
        <ele>209</ele>
        <time>2017-09-25T09:03:55Z</time>
      </trkpt>
      <trkpt lat="47.12398" lon="5.56446">
        <ele>208</ele>
        <time>2017-09-25T09:04:06Z</time>
      </trkpt>
      <trkpt lat="47.12394" lon="5.56451">
        <ele>208</ele>
        <time>2017-09-25T09:04:10Z</time>
      </trkpt>
      <trkpt lat="47.1239" lon="5.56455">
        <ele>208</ele>
        <time>2017-09-25T09:04:15Z</time>
      </trkpt>
      <trkpt lat="47.12387" lon="5.56462">
        <ele>209</ele>
        <time>2017-09-25T09:04:20Z</time>
      </trkpt>
      <trkpt lat="47.12381" lon="5.56475">
        <ele>209</ele>
        <time>2017-09-25T09:04:30Z</time>
      </trkpt>
      <trkpt lat="47.1238" lon="5.56483">
        <ele>209</ele>
        <time>2017-09-25T09:04:34Z</time>
      </trkpt>
      <trkpt lat="47.12374" lon="5.56495">
        <ele>209</ele>
        <time>2017-09-25T09:04:42Z</time>
      </trkpt>
      <trkpt lat="47.12371" lon="5.56501">
        <ele>209</ele>
        <time>2017-09-25T09:04:46Z</time>
      </trkpt>
      <trkpt lat="47.12366" lon="5.56504">
        <ele>209</ele>
        <time>2017-09-25T09:04:50Z</time>
      </trkpt>
      <trkpt lat="47.12358" lon="5.56513">
        <ele>210</ele>
        <time>2017-09-25T09:04:58Z</time>
      </trkpt>
      <trkpt lat="47.1235" lon="5.56522">
        <ele>210</ele>
        <time>2017-09-25T09:05:06Z</time>
      </trkpt>
      <trkpt lat="47.12346" lon="5.56528">
        <ele>210</ele>
        <time>2017-09-25T09:05:10Z</time>
      </trkpt>
      <trkpt lat="47.12342" lon="5.56532">
        <ele>210</ele>
        <time>2017-09-25T09:05:14Z</time>
      </trkpt>
      <trkpt lat="47.12334" lon="5.5654">
        <ele>211</ele>
        <time>2017-09-25T09:05:22Z</time>
      </trkpt>
      <trkpt lat="47.12326" lon="5.56551">
        <ele>210</ele>
        <time>2017-09-25T09:05:30Z</time>
      </trkpt>
      <trkpt lat="47.12319" lon="5.56564">
        <ele>210</ele>
        <time>2017-09-25T09:05:38Z</time>
      </trkpt>
      <trkpt lat="47.12312" lon="5.56575">
        <ele>211</ele>
        <time>2017-09-25T09:05:46Z</time>
      </trkpt>
      <trkpt lat="47.12302" lon="5.56608">
        <ele>210</ele>
        <time>2017-09-25T09:06:04Z</time>
      </trkpt>
      <trkpt lat="47.12301" lon="5.56615">
        <ele>210</ele>
        <time>2017-09-25T09:06:08Z</time>
      </trkpt>
      <trkpt lat="47.12299" lon="5.56637">
        <ele>209</ele>
        <time>2017-09-25T09:06:18Z</time>
      </trkpt>
      <trkpt lat="47.12299" lon="5.56645">
        <ele>209</ele>
        <time>2017-09-25T09:06:22Z</time>
      </trkpt>
      <trkpt lat="47.12298" lon="5.56653">
        <ele>209</ele>
        <time>2017-09-25T09:06:26Z</time>
      </trkpt>
      <trkpt lat="47.12299" lon="5.56708">
        <ele>206</ele>
        <time>2017-09-25T09:06:53Z</time>
      </trkpt>
      <trkpt lat="47.12298" lon="5.56745">
        <ele>207</ele>
        <time>2017-09-25T09:07:13Z</time>
      </trkpt>
      <trkpt lat="47.12298" lon="5.56759">
        <ele>207</ele>
        <time>2017-09-25T09:07:21Z</time>
      </trkpt>
      <trkpt lat="47.12298" lon="5.56782">
        <ele>207</ele>
        <time>2017-09-25T09:07:32Z</time>
      </trkpt>
      <trkpt lat="47.12298" lon="5.56819">
        <ele>206</ele>
        <time>2017-09-25T09:07:52Z</time>
      </trkpt>
      <trkpt lat="47.12298" lon="5.56828">
        <ele>207</ele>
        <time>2017-09-25T09:07:57Z</time>
      </trkpt>
      <trkpt lat="47.12298" lon="5.5685">
        <ele>206</ele>
        <time>2017-09-25T09:08:10Z</time>
      </trkpt>
      <trkpt lat="47.12296" lon="5.56856">
        <ele>206</ele>
        <time>2017-09-25T09:08:17Z</time>
      </trkpt>
      <trkpt lat="47.12296" lon="5.56864">
        <ele>205</ele>
        <time>2017-09-25T09:08:45Z</time>
      </trkpt>
      <trkpt lat="47.12303" lon="5.5687">
        <ele>205</ele>
        <time>2017-09-25T09:09:07Z</time>
      </trkpt>
      <trkpt lat="47.12308" lon="5.56874">
        <ele>204</ele>
        <time>2017-09-25T09:09:13Z</time>
      </trkpt>
      <trkpt lat="47.12313" lon="5.56876">
        <ele>204</ele>
        <time>2017-09-25T09:09:17Z</time>
      </trkpt>
      <trkpt lat="47.12318" lon="5.56876">
        <ele>204</ele>
        <time>2017-09-25T09:09:21Z</time>
      </trkpt>
      <trkpt lat="47.12322" lon="5.56875">
        <ele>204</ele>
        <time>2017-09-25T09:09:24Z</time>
      </trkpt>
      <trkpt lat="47.12327" lon="5.56874">
        <ele>204</ele>
        <time>2017-09-25T09:09:28Z</time>
      </trkpt>
      <trkpt lat="47.12332" lon="5.56876">
        <ele>204</ele>
        <time>2017-09-25T09:09:33Z</time>
      </trkpt>
      <trkpt lat="47.12342" lon="5.56872">
        <ele>204</ele>
        <time>2017-09-25T09:09:41Z</time>
      </trkpt>
      <trkpt lat="47.12353" lon="5.56869">
        <ele>204</ele>
        <time>2017-09-25T09:09:49Z</time>
      </trkpt>
      <trkpt lat="47.12367" lon="5.56863">
        <ele>205</ele>
        <time>2017-09-25T09:10:00Z</time>
      </trkpt>
      <trkpt lat="47.12373" lon="5.56863">
        <ele>204</ele>
        <time>2017-09-25T09:10:05Z</time>
      </trkpt>
      <trkpt lat="47.12378" lon="5.5686">
        <ele>204</ele>
        <time>2017-09-25T09:10:09Z</time>
      </trkpt>
      <trkpt lat="47.12393" lon="5.56855">
        <ele>206</ele>
        <time>2017-09-25T09:10:21Z</time>
      </trkpt>
      <trkpt lat="47.12401" lon="5.56851">
        <ele>206</ele>
        <time>2017-09-25T09:10:28Z</time>
      </trkpt>
      <trkpt lat="47.1243" lon="5.56836">
        <ele>203</ele>
        <time>2017-09-25T09:10:51Z</time>
      </trkpt>
      <trkpt lat="47.12434" lon="5.56835">
        <ele>203</ele>
        <time>2017-09-25T09:10:55Z</time>
      </trkpt>
      <trkpt lat="47.12439" lon="5.56833">
        <ele>203</ele>
        <time>2017-09-25T09:10:59Z</time>
      </trkpt>
      <trkpt lat="47.12443" lon="5.5683">
        <ele>202</ele>
        <time>2017-09-25T09:11:02Z</time>
      </trkpt>
      <trkpt lat="47.12448" lon="5.56828">
        <ele>202</ele>
        <time>2017-09-25T09:11:06Z</time>
      </trkpt>
      <trkpt lat="47.12459" lon="5.56827">
        <ele>203</ele>
        <time>2017-09-25T09:11:15Z</time>
      </trkpt>
      <trkpt lat="47.12464" lon="5.56829">
        <ele>203</ele>
        <time>2017-09-25T09:11:19Z</time>
      </trkpt>
      <trkpt lat="47.12469" lon="5.5683">
        <ele>203</ele>
        <time>2017-09-25T09:11:23Z</time>
      </trkpt>
      <trkpt lat="47.12474" lon="5.56832">
        <ele>202</ele>
        <time>2017-09-25T09:11:27Z</time>
      </trkpt>
      <trkpt lat="47.12489" lon="5.5684">
        <ele>202</ele>
        <time>2017-09-25T09:11:39Z</time>
      </trkpt>
      <trkpt lat="47.12498" lon="5.56848">
        <ele>202</ele>
        <time>2017-09-25T09:11:47Z</time>
      </trkpt>
      <trkpt lat="47.12502" lon="5.56853">
        <ele>202</ele>
        <time>2017-09-25T09:11:51Z</time>
      </trkpt>
      <trkpt lat="47.12507" lon="5.56857">
        <ele>201</ele>
        <time>2017-09-25T09:11:55Z</time>
      </trkpt>
      <trkpt lat="47.12511" lon="5.5686">
        <ele>201</ele>
        <time>2017-09-25T09:11:59Z</time>
      </trkpt>
      <trkpt lat="47.12533" lon="5.5688">
        <ele>201</ele>
        <time>2017-09-25T09:12:19Z</time>
      </trkpt>
      <trkpt lat="47.12566" lon="5.56917">
        <ele>201</ele>
        <time>2017-09-25T09:12:51Z</time>
      </trkpt>
      <trkpt lat="47.126" lon="5.56954">
        <ele>202</ele>
        <time>2017-09-25T09:13:23Z</time>
      </trkpt>
      <trkpt lat="47.12608" lon="5.56965">
        <ele>202</ele>
        <time>2017-09-25T09:13:31Z</time>
      </trkpt>
      <trkpt lat="47.12612" lon="5.56969">
        <ele>201</ele>
        <time>2017-09-25T09:13:35Z</time>
      </trkpt>
      <trkpt lat="47.12616" lon="5.56973">
        <ele>201</ele>
        <time>2017-09-25T09:13:39Z</time>
      </trkpt>
      <trkpt lat="47.12625" lon="5.56981">
        <ele>202</ele>
        <time>2017-09-25T09:13:47Z</time>
      </trkpt>
      <trkpt lat="47.12629" lon="5.56986">
        <ele>203</ele>
        <time>2017-09-25T09:13:51Z</time>
      </trkpt>
      <trkpt lat="47.12632" lon="5.56992">
        <ele>203</ele>
        <time>2017-09-25T09:13:55Z</time>
      </trkpt>
      <trkpt lat="47.12634" lon="5.56999">
        <ele>203</ele>
        <time>2017-09-25T09:14:01Z</time>
      </trkpt>
      <trkpt lat="47.12633" lon="5.57006">
        <ele>203</ele>
        <time>2017-09-25T09:14:05Z</time>
      </trkpt>
      <trkpt lat="47.12629" lon="5.57011">
        <ele>203</ele>
        <time>2017-09-25T09:14:10Z</time>
      </trkpt>
      <trkpt lat="47.12623" lon="5.57024">
        <ele>203</ele>
        <time>2017-09-25T09:14:18Z</time>
      </trkpt>
      <trkpt lat="47.12622" lon="5.57032">
        <ele>204</ele>
        <time>2017-09-25T09:14:22Z</time>
      </trkpt>
      <trkpt lat="47.12619" lon="5.57038">
        <ele>205</ele>
        <time>2017-09-25T09:14:27Z</time>
      </trkpt>
      <trkpt lat="47.12617" lon="5.57052">
        <ele>207</ele>
        <time>2017-09-25T09:14:35Z</time>
      </trkpt>
      <trkpt lat="47.12616" lon="5.57059">
        <ele>207</ele>
        <time>2017-09-25T09:14:39Z</time>
      </trkpt>
      <trkpt lat="47.12616" lon="5.57076">
        <ele>207</ele>
        <time>2017-09-25T09:14:47Z</time>
      </trkpt>
      <trkpt lat="47.12618" lon="5.5709">
        <ele>208</ele>
        <time>2017-09-25T09:14:56Z</time>
      </trkpt>
      <trkpt lat="47.12621" lon="5.57105">
        <ele>207</ele>
        <time>2017-09-25T09:15:05Z</time>
      </trkpt>
      <trkpt lat="47.12622" lon="5.57114">
        <ele>207</ele>
        <time>2017-09-25T09:15:09Z</time>
      </trkpt>
      <trkpt lat="47.12628" lon="5.57135">
        <ele>207</ele>
        <time>2017-09-25T09:15:21Z</time>
      </trkpt>
      <trkpt lat="47.12631" lon="5.57151">
        <ele>208</ele>
        <time>2017-09-25T09:15:30Z</time>
      </trkpt>
      <trkpt lat="47.12639" lon="5.57196">
        <ele>208</ele>
        <time>2017-09-25T09:15:53Z</time>
      </trkpt>
      <trkpt lat="47.12643" lon="5.57209">
        <ele>208</ele>
        <time>2017-09-25T09:16:02Z</time>
      </trkpt>
      <trkpt lat="47.1265" lon="5.5723">
        <ele>208</ele>
        <time>2017-09-25T09:16:13Z</time>
      </trkpt>
      <trkpt lat="47.12653" lon="5.57251">
        <ele>208</ele>
        <time>2017-09-25T09:16:24Z</time>
      </trkpt>
      <trkpt lat="47.12655" lon="5.57257">
        <ele>208</ele>
        <time>2017-09-25T09:16:28Z</time>
      </trkpt>
      <trkpt lat="47.12656" lon="5.57265">
        <ele>207</ele>
        <time>2017-09-25T09:16:32Z</time>
      </trkpt>
      <trkpt lat="47.1267" lon="5.5732">
        <ele>206</ele>
        <time>2017-09-25T09:17:04Z</time>
      </trkpt>
      <trkpt lat="47.12673" lon="5.57335">
        <ele>205</ele>
        <time>2017-09-25T09:17:12Z</time>
      </trkpt>
      <trkpt lat="47.12676" lon="5.57366">
        <ele>207</ele>
        <time>2017-09-25T09:17:29Z</time>
      </trkpt>
      <trkpt lat="47.12677" lon="5.57418">
        <ele>209</ele>
        <time>2017-09-25T09:18:00Z</time>
      </trkpt>
      <trkpt lat="47.12677" lon="5.57433">
        <ele>210</ele>
        <time>2017-09-25T09:18:08Z</time>
      </trkpt>
      <trkpt lat="47.12677" lon="5.57441">
        <ele>210</ele>
        <time>2017-09-25T09:18:12Z</time>
      </trkpt>
      <trkpt lat="47.12674" lon="5.57461">
        <ele>210</ele>
        <time>2017-09-25T09:18:24Z</time>
      </trkpt>
      <trkpt lat="47.12673" lon="5.57468">
        <ele>210</ele>
        <time>2017-09-25T09:18:28Z</time>
      </trkpt>
      <trkpt lat="47.12672" lon="5.57475">
        <ele>210</ele>
        <time>2017-09-25T09:18:32Z</time>
      </trkpt>
      <trkpt lat="47.1267" lon="5.57482">
        <ele>209</ele>
        <time>2017-09-25T09:18:36Z</time>
      </trkpt>
      <trkpt lat="47.12668" lon="5.57488">
        <ele>209</ele>
        <time>2017-09-25T09:18:40Z</time>
      </trkpt>
      <trkpt lat="47.12654" lon="5.57519">
        <ele>209</ele>
        <time>2017-09-25T09:19:01Z</time>
      </trkpt>
      <trkpt lat="47.1265" lon="5.57524">
        <ele>209</ele>
        <time>2017-09-25T09:19:05Z</time>
      </trkpt>
      <trkpt lat="47.12638" lon="5.57538">
        <ele>210</ele>
        <time>2017-09-25T09:19:17Z</time>
      </trkpt>
      <trkpt lat="47.12629" lon="5.57544">
        <ele>211</ele>
        <time>2017-09-25T09:19:26Z</time>
      </trkpt>
      <trkpt lat="47.12625" lon="5.57549">
        <ele>212</ele>
        <time>2017-09-25T09:19:30Z</time>
      </trkpt>
      <trkpt lat="47.1261" lon="5.57554">
        <ele>213</ele>
        <time>2017-09-25T09:19:42Z</time>
      </trkpt>
      <trkpt lat="47.12601" lon="5.57561">
        <ele>214</ele>
        <time>2017-09-25T09:19:50Z</time>
      </trkpt>
      <trkpt lat="47.12594" lon="5.57572">
        <ele>214</ele>
        <time>2017-09-25T09:19:58Z</time>
      </trkpt>
      <trkpt lat="47.12592" lon="5.57579">
        <ele>214</ele>
        <time>2017-09-25T09:20:01Z</time>
      </trkpt>
      <trkpt lat="47.12585" lon="5.57589">
        <ele>215</ele>
        <time>2017-09-25T09:20:09Z</time>
      </trkpt>
      <trkpt lat="47.12583" lon="5.57596">
        <ele>215</ele>
        <time>2017-09-25T09:20:13Z</time>
      </trkpt>
      <trkpt lat="47.1258" lon="5.57602">
        <ele>215</ele>
        <time>2017-09-25T09:20:17Z</time>
      </trkpt>
      <trkpt lat="47.12577" lon="5.57608">
        <ele>214</ele>
        <time>2017-09-25T09:20:21Z</time>
      </trkpt>
      <trkpt lat="47.12575" lon="5.57614">
        <ele>214</ele>
        <time>2017-09-25T09:20:25Z</time>
      </trkpt>
      <trkpt lat="47.12564" lon="5.57636">
        <ele>214</ele>
        <time>2017-09-25T09:20:41Z</time>
      </trkpt>
      <trkpt lat="47.1256" lon="5.57641">
        <ele>215</ele>
        <time>2017-09-25T09:20:46Z</time>
      </trkpt>
      <trkpt lat="47.1254" lon="5.57646">
        <ele>215</ele>
        <time>2017-09-25T09:21:05Z</time>
      </trkpt>
      <trkpt lat="47.12535" lon="5.57645">
        <ele>215</ele>
        <time>2017-09-25T09:21:09Z</time>
      </trkpt>
      <trkpt lat="47.12529" lon="5.57644">
        <ele>215</ele>
        <time>2017-09-25T09:21:13Z</time>
      </trkpt>
      <trkpt lat="47.12519" lon="5.57644">
        <ele>214</ele>
        <time>2017-09-25T09:21:21Z</time>
      </trkpt>
      <trkpt lat="47.12495" lon="5.57648">
        <ele>215</ele>
        <time>2017-09-25T09:21:41Z</time>
      </trkpt>
      <trkpt lat="47.1248" lon="5.57655">
        <ele>215</ele>
        <time>2017-09-25T09:21:59Z</time>
      </trkpt>
      <trkpt lat="47.12474" lon="5.57659">
        <ele>215</ele>
        <time>2017-09-25T09:22:15Z</time>
      </trkpt>
      <trkpt lat="47.12469" lon="5.57659">
        <ele>216</ele>
        <time>2017-09-25T09:24:40Z</time>
      </trkpt>
      <trkpt lat="47.12465" lon="5.57661">
        <ele>216</ele>
        <time>2017-09-25T09:24:46Z</time>
      </trkpt>
      <trkpt lat="47.12437" lon="5.57694">
        <ele>212</ele>
        <time>2017-09-25T09:25:18Z</time>
      </trkpt>
      <trkpt lat="47.12433" lon="5.57699">
        <ele>211</ele>
        <time>2017-09-25T09:25:23Z</time>
      </trkpt>
      <trkpt lat="47.12427" lon="5.5771">
        <ele>210</ele>
        <time>2017-09-25T09:25:32Z</time>
      </trkpt>
      <trkpt lat="47.12423" lon="5.57716">
        <ele>210</ele>
        <time>2017-09-25T09:25:37Z</time>
      </trkpt>
      <trkpt lat="47.1242" lon="5.57721">
        <ele>210</ele>
        <time>2017-09-25T09:25:41Z</time>
      </trkpt>
      <trkpt lat="47.12412" lon="5.57729">
        <ele>209</ele>
        <time>2017-09-25T09:25:51Z</time>
      </trkpt>
      <trkpt lat="47.12405" lon="5.5774">
        <ele>208</ele>
        <time>2017-09-25T09:26:00Z</time>
      </trkpt>
      <trkpt lat="47.12401" lon="5.57744">
        <ele>208</ele>
        <time>2017-09-25T09:26:04Z</time>
      </trkpt>
      <trkpt lat="47.12383" lon="5.57768">
        <ele>210</ele>
        <time>2017-09-25T09:26:25Z</time>
      </trkpt>
      <trkpt lat="47.12373" lon="5.57784">
        <ele>210</ele>
        <time>2017-09-25T09:26:38Z</time>
      </trkpt>
      <trkpt lat="47.12364" lon="5.57794">
        <ele>210</ele>
        <time>2017-09-25T09:26:48Z</time>
      </trkpt>
      <trkpt lat="47.1236" lon="5.57798">
        <ele>211</ele>
        <time>2017-09-25T09:26:53Z</time>
      </trkpt>
      <trkpt lat="47.12354" lon="5.57808">
        <ele>212</ele>
        <time>2017-09-25T09:27:01Z</time>
      </trkpt>
      <trkpt lat="47.1235" lon="5.57812">
        <ele>212</ele>
        <time>2017-09-25T09:27:05Z</time>
      </trkpt>
      <trkpt lat="47.12343" lon="5.57822">
        <ele>212</ele>
        <time>2017-09-25T09:27:13Z</time>
      </trkpt>
      <trkpt lat="47.1234" lon="5.57827">
        <ele>213</ele>
        <time>2017-09-25T09:27:17Z</time>
      </trkpt>
      <trkpt lat="47.12336" lon="5.57831">
        <ele>213</ele>
        <time>2017-09-25T09:27:21Z</time>
      </trkpt>
      <trkpt lat="47.12333" lon="5.57835">
        <ele>214</ele>
        <time>2017-09-25T09:27:25Z</time>
      </trkpt>
      <trkpt lat="47.1233" lon="5.57841">
        <ele>214</ele>
        <time>2017-09-25T09:27:29Z</time>
      </trkpt>
      <trkpt lat="47.12314" lon="5.57866">
        <ele>216</ele>
        <time>2017-09-25T09:27:49Z</time>
      </trkpt>
      <trkpt lat="47.1231" lon="5.5787">
        <ele>216</ele>
        <time>2017-09-25T09:27:53Z</time>
      </trkpt>
      <trkpt lat="47.12305" lon="5.57874">
        <ele>217</ele>
        <time>2017-09-25T09:27:58Z</time>
      </trkpt>
      <trkpt lat="47.12283" lon="5.57903">
        <ele>222</ele>
        <time>2017-09-25T09:28:28Z</time>
      </trkpt>
      <trkpt lat="47.12257" lon="5.57937">
        <ele>225</ele>
        <time>2017-09-25T09:29:00Z</time>
      </trkpt>
      <trkpt lat="47.12248" lon="5.57945">
        <ele>226</ele>
        <time>2017-09-25T09:29:10Z</time>
      </trkpt>
      <trkpt lat="47.12241" lon="5.57954">
        <ele>226</ele>
        <time>2017-09-25T09:29:18Z</time>
      </trkpt>
      <trkpt lat="47.12238" lon="5.57959">
        <ele>227</ele>
        <time>2017-09-25T09:29:22Z</time>
      </trkpt>
      <trkpt lat="47.12224" lon="5.5798">
        <ele>227</ele>
        <time>2017-09-25T09:29:39Z</time>
      </trkpt>
      <trkpt lat="47.12219" lon="5.57985">
        <ele>228</ele>
        <time>2017-09-25T09:29:44Z</time>
      </trkpt>
      <trkpt lat="47.12212" lon="5.57993">
        <ele>227</ele>
        <time>2017-09-25T09:29:52Z</time>
      </trkpt>
      <trkpt lat="47.12183" lon="5.58029">
        <ele>227</ele>
        <time>2017-09-25T09:30:24Z</time>
      </trkpt>
      <trkpt lat="47.12176" lon="5.58039">
        <ele>227</ele>
        <time>2017-09-25T09:30:32Z</time>
      </trkpt>
      <trkpt lat="47.12169" lon="5.5805">
        <ele>226</ele>
        <time>2017-09-25T09:30:40Z</time>
      </trkpt>
      <trkpt lat="47.12161" lon="5.58057">
        <ele>226</ele>
        <time>2017-09-25T09:30:47Z</time>
      </trkpt>
      <trkpt lat="47.12151" lon="5.58074">
        <ele>227</ele>
        <time>2017-09-25T09:30:59Z</time>
      </trkpt>
      <trkpt lat="47.12139" lon="5.58087">
        <ele>229</ele>
        <time>2017-09-25T09:31:12Z</time>
      </trkpt>
      <trkpt lat="47.12127" lon="5.58103">
        <ele>229</ele>
        <time>2017-09-25T09:31:26Z</time>
      </trkpt>
      <trkpt lat="47.12124" lon="5.58109">
        <ele>229</ele>
        <time>2017-09-25T09:31:30Z</time>
      </trkpt>
      <trkpt lat="47.12103" lon="5.58137">
        <ele>230</ele>
        <time>2017-09-25T09:31:54Z</time>
      </trkpt>
      <trkpt lat="47.12099" lon="5.5814">
        <ele>231</ele>
        <time>2017-09-25T09:31:58Z</time>
      </trkpt>
      <trkpt lat="47.12096" lon="5.58145">
        <ele>231</ele>
        <time>2017-09-25T09:32:02Z</time>
      </trkpt>
      <trkpt lat="47.12091" lon="5.58147">
        <ele>232</ele>
        <time>2017-09-25T09:32:06Z</time>
      </trkpt>
      <trkpt lat="47.12079" lon="5.5816">
        <ele>232</ele>
        <time>2017-09-25T09:32:19Z</time>
      </trkpt>
      <trkpt lat="47.12071" lon="5.58171">
        <ele>234</ele>
        <time>2017-09-25T09:32:29Z</time>
      </trkpt>
      <trkpt lat="47.12069" lon="5.58177">
        <ele>234</ele>
        <time>2017-09-25T09:32:33Z</time>
      </trkpt>
      <trkpt lat="47.12062" lon="5.58188">
        <ele>233</ele>
        <time>2017-09-25T09:32:41Z</time>
      </trkpt>
      <trkpt lat="47.12059" lon="5.58193">
        <ele>233</ele>
        <time>2017-09-25T09:32:45Z</time>
      </trkpt>
      <trkpt lat="47.12056" lon="5.582">
        <ele>232</ele>
        <time>2017-09-25T09:32:49Z</time>
      </trkpt>
      <trkpt lat="47.12053" lon="5.58205">
        <ele>232</ele>
        <time>2017-09-25T09:32:53Z</time>
      </trkpt>
      <trkpt lat="47.12028" lon="5.58243">
        <ele>236</ele>
        <time>2017-09-25T09:33:26Z</time>
      </trkpt>
      <trkpt lat="47.12024" lon="5.58247">
        <ele>237</ele>
        <time>2017-09-25T09:33:31Z</time>
      </trkpt>
      <trkpt lat="47.12018" lon="5.58259">
        <ele>238</ele>
        <time>2017-09-25T09:33:41Z</time>
      </trkpt>
      <trkpt lat="47.12014" lon="5.58264">
        <ele>238</ele>
        <time>2017-09-25T09:33:46Z</time>
      </trkpt>
      <trkpt lat="47.12011" lon="5.5827">
        <ele>239</ele>
        <time>2017-09-25T09:33:51Z</time>
      </trkpt>
      <trkpt lat="47.12008" lon="5.58276">
        <ele>240</ele>
        <time>2017-09-25T09:33:56Z</time>
      </trkpt>
      <trkpt lat="47.12009" lon="5.58285">
        <ele>241</ele>
        <time>2017-09-25T09:34:10Z</time>
      </trkpt>
      <trkpt lat="47.12017" lon="5.58295">
        <ele>242</ele>
        <time>2017-09-25T09:34:26Z</time>
      </trkpt>
      <trkpt lat="47.12029" lon="5.5831">
        <ele>242</ele>
        <time>2017-09-25T09:34:41Z</time>
      </trkpt>
      <trkpt lat="47.12039" lon="5.58326">
        <ele>242</ele>
        <time>2017-09-25T09:34:56Z</time>
      </trkpt>
      <trkpt lat="47.1205" lon="5.58341">
        <ele>241</ele>
        <time>2017-09-25T09:35:10Z</time>
      </trkpt>
      <trkpt lat="47.12077" lon="5.58385">
        <ele>237</ele>
        <time>2017-09-25T09:35:45Z</time>
      </trkpt>
      <trkpt lat="47.12091" lon="5.58408">
        <ele>237</ele>
        <time>2017-09-25T09:36:02Z</time>
      </trkpt>
      <trkpt lat="47.12093" lon="5.58413">
        <ele>236</ele>
        <time>2017-09-25T09:36:06Z</time>
      </trkpt>
      <trkpt lat="47.12111" lon="5.5844">
        <ele>236</ele>
        <time>2017-09-25T09:36:30Z</time>
      </trkpt>
      <trkpt lat="47.12131" lon="5.58474">
        <ele>233</ele>
        <time>2017-09-25T09:36:58Z</time>
      </trkpt>
      <trkpt lat="47.12135" lon="5.58478">
        <ele>233</ele>
        <time>2017-09-25T09:37:02Z</time>
      </trkpt>
      <trkpt lat="47.12138" lon="5.58483">
        <ele>232</ele>
        <time>2017-09-25T09:37:06Z</time>
      </trkpt>
      <trkpt lat="47.12146" lon="5.58491">
        <ele>230</ele>
        <time>2017-09-25T09:37:15Z</time>
      </trkpt>
      <trkpt lat="47.12148" lon="5.58497">
        <ele>230</ele>
        <time>2017-09-25T09:37:19Z</time>
      </trkpt>
      <trkpt lat="47.12161" lon="5.5851">
        <ele>229</ele>
        <time>2017-09-25T09:37:32Z</time>
      </trkpt>
      <trkpt lat="47.12166" lon="5.58522">
        <ele>229</ele>
        <time>2017-09-25T09:37:40Z</time>
      </trkpt>
      <trkpt lat="47.12181" lon="5.58561">
        <ele>228</ele>
        <time>2017-09-25T09:38:07Z</time>
      </trkpt>
      <trkpt lat="47.12184" lon="5.58567">
        <ele>227</ele>
        <time>2017-09-25T09:38:12Z</time>
      </trkpt>
      <trkpt lat="47.1219" lon="5.58585">
        <ele>226</ele>
        <time>2017-09-25T09:38:24Z</time>
      </trkpt>
      <trkpt lat="47.12193" lon="5.58592">
        <ele>225</ele>
        <time>2017-09-25T09:38:28Z</time>
      </trkpt>
      <trkpt lat="47.12197" lon="5.58597">
        <ele>224</ele>
        <time>2017-09-25T09:38:32Z</time>
      </trkpt>
      <trkpt lat="47.12202" lon="5.58609">
        <ele>224</ele>
        <time>2017-09-25T09:38:40Z</time>
      </trkpt>
      <trkpt lat="47.12205" lon="5.58615">
        <ele>223</ele>
        <time>2017-09-25T09:38:44Z</time>
      </trkpt>
      <trkpt lat="47.12217" lon="5.58637">
        <ele>221</ele>
        <time>2017-09-25T09:39:00Z</time>
      </trkpt>
      <trkpt lat="47.12224" lon="5.58646">
        <ele>222</ele>
        <time>2017-09-25T09:39:08Z</time>
      </trkpt>
      <trkpt lat="47.12228" lon="5.58653">
        <ele>221</ele>
        <time>2017-09-25T09:39:13Z</time>
      </trkpt>
      <trkpt lat="47.12234" lon="5.58666">
        <ele>220</ele>
        <time>2017-09-25T09:39:23Z</time>
      </trkpt>
      <trkpt lat="47.12236" lon="5.58673">
        <ele>220</ele>
        <time>2017-09-25T09:39:27Z</time>
      </trkpt>
      <trkpt lat="47.12239" lon="5.58678">
        <ele>220</ele>
        <time>2017-09-25T09:39:31Z</time>
      </trkpt>
      <trkpt lat="47.12245" lon="5.58678">
        <ele>220</ele>
        <time>2017-09-25T09:39:35Z</time>
      </trkpt>
      <trkpt lat="47.12258" lon="5.58669">
        <ele>220</ele>
        <time>2017-09-25T09:39:47Z</time>
      </trkpt>
      <trkpt lat="47.12262" lon="5.58664">
        <ele>220</ele>
        <time>2017-09-25T09:39:51Z</time>
      </trkpt>
      <trkpt lat="47.12271" lon="5.58658">
        <ele>219</ele>
        <time>2017-09-25T09:40:01Z</time>
      </trkpt>
      <trkpt lat="47.12276" lon="5.58656">
        <ele>219</ele>
        <time>2017-09-25T09:40:06Z</time>
      </trkpt>
      <trkpt lat="47.1229" lon="5.58651">
        <ele>219</ele>
        <time>2017-09-25T09:40:19Z</time>
      </trkpt>
      <trkpt lat="47.12295" lon="5.58651">
        <ele>220</ele>
        <time>2017-09-25T09:40:24Z</time>
      </trkpt>
      <trkpt lat="47.12301" lon="5.58653">
        <ele>219</ele>
        <time>2017-09-25T09:40:29Z</time>
      </trkpt>
      <trkpt lat="47.12306" lon="5.58653">
        <ele>218</ele>
        <time>2017-09-25T09:40:33Z</time>
      </trkpt>
      <trkpt lat="47.1231" lon="5.58653">
        <ele>218</ele>
        <time>2017-09-25T09:40:37Z</time>
      </trkpt>
      <trkpt lat="47.12321" lon="5.5865">
        <ele>218</ele>
        <time>2017-09-25T09:40:46Z</time>
      </trkpt>
      <trkpt lat="47.12331" lon="5.58653">
        <ele>217</ele>
        <time>2017-09-25T09:40:54Z</time>
      </trkpt>
      <trkpt lat="47.12336" lon="5.58654">
        <ele>217</ele>
        <time>2017-09-25T09:40:57Z</time>
      </trkpt>
      <trkpt lat="47.12346" lon="5.58654">
        <ele>216</ele>
        <time>2017-09-25T09:41:05Z</time>
      </trkpt>
      <trkpt lat="47.1236" lon="5.58661">
        <ele>215</ele>
        <time>2017-09-25T09:41:18Z</time>
      </trkpt>
      <trkpt lat="47.12375" lon="5.58664">
        <ele>214</ele>
        <time>2017-09-25T09:41:30Z</time>
      </trkpt>
      <trkpt lat="47.12385" lon="5.58665">
        <ele>214</ele>
        <time>2017-09-25T09:41:38Z</time>
      </trkpt>
      <trkpt lat="47.124" lon="5.58666">
        <ele>212</ele>
        <time>2017-09-25T09:41:50Z</time>
      </trkpt>
      <trkpt lat="47.12406" lon="5.58666">
        <ele>213</ele>
        <time>2017-09-25T09:41:55Z</time>
      </trkpt>
      <trkpt lat="47.12411" lon="5.58667">
        <ele>213</ele>
        <time>2017-09-25T09:41:59Z</time>
      </trkpt>
      <trkpt lat="47.12415" lon="5.5867">
        <ele>213</ele>
        <time>2017-09-25T09:42:03Z</time>
      </trkpt>
      <trkpt lat="47.1242" lon="5.58673">
        <ele>213</ele>
        <time>2017-09-25T09:42:07Z</time>
      </trkpt>
      <trkpt lat="47.12424" lon="5.58677">
        <ele>213</ele>
        <time>2017-09-25T09:42:11Z</time>
      </trkpt>
      <trkpt lat="47.12429" lon="5.58682">
        <ele>213</ele>
        <time>2017-09-25T09:42:16Z</time>
      </trkpt>
      <trkpt lat="47.12432" lon="5.58685">
        <ele>213</ele>
        <time>2017-09-25T09:42:20Z</time>
      </trkpt>
      <trkpt lat="47.12444" lon="5.58699">
        <ele>212</ele>
        <time>2017-09-25T09:42:32Z</time>
      </trkpt>
      <trkpt lat="47.12461" lon="5.58711">
        <ele>212</ele>
        <time>2017-09-25T09:42:49Z</time>
      </trkpt>
      <trkpt lat="47.12466" lon="5.58709">
        <ele>212</ele>
        <time>2017-09-25T09:42:54Z</time>
      </trkpt>
      <trkpt lat="47.1247" lon="5.58705">
        <ele>212</ele>
        <time>2017-09-25T09:42:58Z</time>
      </trkpt>
      <trkpt lat="47.12474" lon="5.587">
        <ele>212</ele>
        <time>2017-09-25T09:43:02Z</time>
      </trkpt>
      <trkpt lat="47.12478" lon="5.58694">
        <ele>211</ele>
        <time>2017-09-25T09:43:06Z</time>
      </trkpt>
      <trkpt lat="47.12484" lon="5.58683">
        <ele>211</ele>
        <time>2017-09-25T09:43:14Z</time>
      </trkpt>
      <trkpt lat="47.12488" lon="5.58678">
        <ele>211</ele>
        <time>2017-09-25T09:43:18Z</time>
      </trkpt>
      <trkpt lat="47.12491" lon="5.58672">
        <ele>212</ele>
        <time>2017-09-25T09:43:22Z</time>
      </trkpt>
      <trkpt lat="47.12495" lon="5.58668">
        <ele>212</ele>
        <time>2017-09-25T09:43:26Z</time>
      </trkpt>
      <trkpt lat="47.12499" lon="5.58663">
        <ele>212</ele>
        <time>2017-09-25T09:43:31Z</time>
      </trkpt>
      <trkpt lat="47.1252" lon="5.58631">
        <ele>212</ele>
        <time>2017-09-25T09:43:57Z</time>
      </trkpt>
      <trkpt lat="47.12523" lon="5.58617">
        <ele>212</ele>
        <time>2017-09-25T09:44:07Z</time>
      </trkpt>
      <trkpt lat="47.12529" lon="5.58604">
        <ele>212</ele>
        <time>2017-09-25T09:44:15Z</time>
      </trkpt>
      <trkpt lat="47.12532" lon="5.58598">
        <ele>213</ele>
        <time>2017-09-25T09:44:19Z</time>
      </trkpt>
      <trkpt lat="47.12534" lon="5.58591">
        <ele>213</ele>
        <time>2017-09-25T09:44:23Z</time>
      </trkpt>
      <trkpt lat="47.12533" lon="5.58584">
        <ele>213</ele>
        <time>2017-09-25T09:44:27Z</time>
      </trkpt>
    </trkseg>
  </trk>
</gpx>